SZN308 SKBO-GOBD
Flight info
| Callsign | SZN308 |
|---|---|
| Flight time | 7h 20m |
| Altitude | 37000 |
| Route | MAVDA UW20 AUC DCT MIQ UN669 MASPA/N0489F390 UN669 ELJEZ/M085F390 DCT 2150N DCT 2340N DCT 22N036W DCT ERNEK/N0484F410 DCT EVKAS DCT BVT DCT MOGSA DCT PIVSA |
| Aircraft | A359/H-SDE2E3GHIJ3J4J5LM1ORWXY/LB1D1 |
Departure
| Time | 2026-04-25 11:37 |
|---|---|
| Airport | El Dorado International Airport (SKBO) |
Arrival
| Time | 2026-04-25 18:58 |
|---|---|
| Airport | Blaise Diagne International Airport (GOBD) |
| Time | Latitude | Longitude | Altitude | Speed | Heading |
|---|---|---|---|---|---|
| 2026-04-25 09:52 | 4.69773 | -74.13827 | 8372 ft | 0 kts | 217° |
| 2026-04-25 11:15 | 4.69790 | -74.13814 | 8373 ft | 4 kts | 217° |
| 2026-04-25 11:15 | 4.69808 | -74.13800 | 8373 ft | 4 kts | 223° |
| 2026-04-25 11:15 | 4.69821 | -74.13779 | 8373 ft | 4 kts | 272° |
| 2026-04-25 11:16 | 4.69799 | -74.13732 | 8373 ft | 4 kts | 308° |
| 2026-04-25 11:16 | 4.69783 | -74.13711 | 8373 ft | 4 kts | 307° |
| 2026-04-25 11:16 | 4.69773 | -74.13698 | 8373 ft | 0 kts | 307° |
| 2026-04-25 11:22 | 4.69774 | -74.13699 | 8373 ft | 0 kts | 307° |
| 2026-04-25 11:22 | 4.69790 | -74.13721 | 8373 ft | 7 kts | 307° |
| 2026-04-25 11:23 | 4.69822 | -74.13741 | 8371 ft | 4 kts | 351° |
| 2026-04-25 11:23 | 4.69841 | -74.13730 | 8387 ft | 3 kts | 41° |
| 2026-04-25 11:23 | 4.69858 | -74.13709 | 8372 ft | 5 kts | 53° |
| 2026-04-25 11:23 | 4.69873 | -74.13675 | 8372 ft | 6 kts | 67° |
| 2026-04-25 11:24 | 4.69900 | -74.13653 | 8373 ft | 4 kts | 4° |
| 2026-04-25 11:24 | 4.69923 | -74.13667 | 8372 ft | 4 kts | 320° |
| 2026-04-25 11:24 | 4.69948 | -74.13695 | 8373 ft | 7 kts | 309° |
| 2026-04-25 11:24 | 4.69987 | -74.13745 | 8373 ft | 9 kts | 308° |
| 2026-04-25 11:25 | 4.70024 | -74.13793 | 8373 ft | 8 kts | 308° |
| 2026-04-25 11:25 | 4.70058 | -74.13839 | 8372 ft | 9 kts | 306° |
| 2026-04-25 11:25 | 4.70104 | -74.13902 | 8372 ft | 13 kts | 307° |
| 2026-04-25 11:25 | 4.70166 | -74.13983 | 8372 ft | 16 kts | 308° |
| 2026-04-25 11:26 | 4.70240 | -74.14080 | 8372 ft | 19 kts | 307° |
| 2026-04-25 11:26 | 4.70324 | -74.14192 | 8372 ft | 20 kts | 307° |
| 2026-04-25 11:26 | 4.70405 | -74.14300 | 8373 ft | 19 kts | 307° |
| 2026-04-25 11:26 | 4.70465 | -74.14380 | 8373 ft | 10 kts | 307° |
| 2026-04-25 11:27 | 4.70494 | -74.14436 | 8373 ft | 7 kts | 263° |
| 2026-04-25 11:27 | 4.70458 | -74.14480 | 8373 ft | 13 kts | 222° |
| 2026-04-25 11:27 | 4.70357 | -74.14556 | 8373 ft | 20 kts | 216° |
| 2026-04-25 11:27 | 4.70284 | -74.14612 | 8373 ft | 20 kts | 217° |
| 2026-04-25 11:28 | 4.70143 | -74.14718 | 8373 ft | 18 kts | 217° |
| 2026-04-25 11:28 | 4.70043 | -74.14792 | 8372 ft | 17 kts | 216° |
| 2026-04-25 11:28 | 4.69960 | -74.14854 | 8373 ft | 11 kts | 217° |
| 2026-04-25 11:28 | 4.69902 | -74.14897 | 8372 ft | 10 kts | 217° |
| 2026-04-25 11:29 | 4.69854 | -74.14942 | 8373 ft | 8 kts | 246° |
| 2026-04-25 11:29 | 4.69869 | -74.14987 | 8373 ft | 7 kts | 300° |
| 2026-04-25 11:29 | 4.69899 | -74.15033 | 8373 ft | 9 kts | 305° |
| 2026-04-25 11:29 | 4.69943 | -74.15092 | 8373 ft | 12 kts | 307° |
| 2026-04-25 11:30 | 4.69998 | -74.15165 | 8372 ft | 14 kts | 307° |
| 2026-04-25 11:30 | 4.70062 | -74.15249 | 8373 ft | 16 kts | 307° |
| 2026-04-25 11:30 | 4.70134 | -74.15344 | 8372 ft | 18 kts | 307° |
| 2026-04-25 11:30 | 4.70212 | -74.15448 | 8372 ft | 20 kts | 307° |
| 2026-04-25 11:31 | 4.70299 | -74.15562 | 8372 ft | 21 kts | 308° |
| 2026-04-25 11:31 | 4.70391 | -74.15684 | 8372 ft | 23 kts | 307° |
| 2026-04-25 11:31 | 4.70488 | -74.15812 | 8372 ft | 24 kts | 307° |
| 2026-04-25 11:31 | 4.70589 | -74.15945 | 8372 ft | 24 kts | 307° |
| 2026-04-25 11:32 | 4.70693 | -74.16083 | 8373 ft | 25 kts | 307° |
| 2026-04-25 11:32 | 4.70800 | -74.16226 | 8372 ft | 26 kts | 307° |
| 2026-04-25 11:32 | 4.70911 | -74.16369 | 8373 ft | 26 kts | 308° |
| 2026-04-25 11:32 | 4.71022 | -74.16516 | 8372 ft | 26 kts | 307° |
| 2026-04-25 11:33 | 4.71133 | -74.16661 | 8373 ft | 26 kts | 307° |
| 2026-04-25 11:33 | 4.71197 | -74.16745 | 8372 ft | 9 kts | 306° |
| 2026-04-25 11:33 | 4.71192 | -74.16798 | 8372 ft | 8 kts | 230° |
| 2026-04-25 11:33 | 4.71159 | -74.16826 | 8371 ft | 0 kts | 218° |
| 2026-04-25 11:34 | 4.71131 | -74.16847 | 8371 ft | 10 kts | 216° |
| 2026-04-25 11:34 | 4.71071 | -74.16884 | 8369 ft | 8 kts | 194° |
| 2026-04-25 11:34 | 4.71030 | -74.16880 | 8369 ft | 5 kts | 153° |
| 2026-04-25 11:35 | 4.71002 | -74.16854 | 8370 ft | 7 kts | 129° |
| 2026-04-25 11:35 | 4.70994 | -74.16842 | 8370 ft | 0 kts | 126° |
| 2026-04-25 11:36 | 4.70986 | -74.16831 | 8370 ft | 13 kts | 126° |
| 2026-04-25 11:36 | 4.70790 | -74.16573 | 8371 ft | 78 kts | 127° |
| 2026-04-25 11:37 | 4.70344 | -74.15980 | 8371 ft | 134 kts | 127° |
| 2026-04-25 11:37 | 4.69685 | -74.15109 | 8373 ft | 182 kts | 127° |
| 2026-04-25 11:37 | 4.68889 | -74.14078 | 9051 ft | 180 kts | 128° |
| 2026-04-25 11:37 | 4.67999 | -74.13211 | 9687 ft | 184 kts | 156° |
| 2026-04-25 11:38 | 4.66750 | -74.13179 | 10180 ft | 186 kts | 204° |
| 2026-04-25 11:38 | 4.65869 | -74.14078 | 10487 ft | 187 kts | 251° |
| 2026-04-25 11:38 | 4.65529 | -74.15332 | 10853 ft | 187 kts | 254° |
| 2026-04-25 11:38 | 4.65048 | -74.16553 | 11193 ft | 193 kts | 243° |
| 2026-04-25 11:39 | 4.64306 | -74.17733 | 11379 ft | 207 kts | 233° |
| 2026-04-25 11:39 | 4.63342 | -74.18880 | 11610 ft | 223 kts | 227° |
| 2026-04-25 11:39 | 4.62234 | -74.20035 | 11859 ft | 237 kts | 227° |
| 2026-04-25 11:39 | 4.61384 | -74.21480 | 12087 ft | 250 kts | 254° |
| 2026-04-25 11:40 | 4.60994 | -74.23233 | 12341 ft | 266 kts | 260° |
| 2026-04-25 11:40 | 4.60668 | -74.25102 | 12606 ft | 281 kts | 260° |
| 2026-04-25 11:40 | 4.60146 | -74.27048 | 12908 ft | 295 kts | 245° |
| 2026-04-25 11:40 | 4.58949 | -74.28736 | 13372 ft | 301 kts | 227° |
| 2026-04-25 11:41 | 4.57489 | -74.30262 | 13945 ft | 306 kts | 226° |
| 2026-04-25 11:41 | 4.55986 | -74.31792 | 14478 ft | 310 kts | 226° |
| 2026-04-25 11:41 | 4.54473 | -74.33339 | 14987 ft | 313 kts | 226° |
| 2026-04-25 11:41 | 4.52826 | -74.34782 | 15480 ft | 318 kts | 216° |
| 2026-04-25 11:42 | 4.50921 | -74.35995 | 15726 ft | 331 kts | 211° |
| 2026-04-25 11:42 | 4.48898 | -74.37189 | 15958 ft | 344 kts | 211° |
| 2026-04-25 11:42 | 4.46803 | -74.38423 | 16183 ft | 356 kts | 211° |
| 2026-04-25 11:42 | 4.44637 | -74.39705 | 16398 ft | 367 kts | 211° |
| 2026-04-25 11:43 | 4.42413 | -74.41027 | 16622 ft | 378 kts | 211° |
| 2026-04-25 11:43 | 4.40122 | -74.42391 | 16816 ft | 388 kts | 212° |
| 2026-04-25 11:43 | 4.37806 | -74.43771 | 17045 ft | 397 kts | 212° |
| 2026-04-25 11:43 | 4.35382 | -74.45158 | 17216 ft | 406 kts | 207° |
| 2026-04-25 11:44 | 4.32711 | -74.46167 | 17442 ft | 414 kts | 197° |
| 2026-04-25 11:44 | 4.29867 | -74.46778 | 17610 ft | 423 kts | 187° |
| 2026-04-25 11:44 | 4.26898 | -74.46742 | 17772 ft | 433 kts | 171° |
| 2026-04-25 11:44 | 4.24018 | -74.45812 | 17933 ft | 441 kts | 153° |
| 2026-04-25 11:45 | 4.21498 | -74.44030 | 18105 ft | 449 kts | 136° |
| 2026-04-25 11:45 | 4.19574 | -74.41552 | 18254 ft | 455 kts | 119° |
| 2026-04-25 11:45 | 4.18417 | -74.38590 | 18388 ft | 461 kts | 103° |
| 2026-04-25 11:45 | 4.18127 | -74.35392 | 18522 ft | 462 kts | 86° |
| 2026-04-25 11:46 | 4.18712 | -74.32284 | 18427 ft | 450 kts | 70° |
| 2026-04-25 11:46 | 4.20130 | -74.29534 | 18299 ft | 444 kts | 53° |
| 2026-04-25 11:46 | 4.22268 | -74.27343 | 18195 ft | 438 kts | 36° |
| 2026-04-25 11:46 | 4.24797 | -74.25667 | 18117 ft | 433 kts | 31° |
| 2026-04-25 11:47 | 4.27321 | -74.24037 | 18030 ft | 432 kts | 34° |
| 2026-04-25 11:47 | 4.29717 | -74.22191 | 18139 ft | 441 kts | 40° |
| 2026-04-25 11:47 | 4.31983 | -74.20067 | 18288 ft | 446 kts | 45° |
| 2026-04-25 11:47 | 4.34091 | -74.17763 | 18416 ft | 451 kts | 49° |
| 2026-04-25 11:48 | 4.36110 | -74.15337 | 18543 ft | 455 kts | 50° |
| 2026-04-25 11:48 | 4.38085 | -74.12847 | 18620 ft | 457 kts | 51° |
| 2026-04-25 11:48 | 4.40025 | -74.10364 | 18586 ft | 449 kts | 51° |
| 2026-04-25 11:48 | 4.41941 | -74.07912 | 18480 ft | 445 kts | 51° |
| 2026-04-25 11:49 | 4.43873 | -74.05458 | 18502 ft | 452 kts | 51° |
| 2026-04-25 11:49 | 4.45837 | -74.02981 | 18587 ft | 455 kts | 51° |
| 2026-04-25 11:49 | 4.47794 | -74.00527 | 18528 ft | 446 kts | 51° |
| 2026-04-25 11:49 | 4.49752 | -73.98154 | 18342 ft | 439 kts | 45° |
| 2026-04-25 11:50 | 4.52189 | -73.96316 | 18272 ft | 438 kts | 30° |
| 2026-04-25 11:50 | 4.54682 | -73.94601 | 18497 ft | 432 kts | 32° |
| 2026-04-25 11:50 | 4.57178 | -73.92929 | 18495 ft | 433 kts | 37° |
| 2026-04-25 11:50 | 4.59371 | -73.90862 | 18546 ft | 432 kts | 48° |
| 2026-04-25 11:51 | 4.61267 | -73.88542 | 18665 ft | 429 kts | 51° |
| 2026-04-25 11:51 | 4.63078 | -73.86226 | 18729 ft | 429 kts | 51° |
| 2026-04-25 11:51 | 4.64913 | -73.83871 | 18770 ft | 429 kts | 51° |
| 2026-04-25 11:51 | 4.66755 | -73.81507 | 18983 ft | 430 kts | 51° |
| 2026-04-25 11:52 | 4.68594 | -73.79150 | 19193 ft | 431 kts | 51° |
| 2026-04-25 11:52 | 4.70447 | -73.76771 | 19413 ft | 432 kts | 51° |
| 2026-04-25 11:52 | 4.72302 | -73.74404 | 19601 ft | 433 kts | 51° |
| 2026-04-25 11:52 | 4.74167 | -73.72032 | 19820 ft | 434 kts | 51° |
| 2026-04-25 11:53 | 4.76035 | -73.69657 | 20039 ft | 435 kts | 51° |
| 2026-04-25 11:53 | 4.77913 | -73.67268 | 20200 ft | 437 kts | 51° |
| 2026-04-25 11:53 | 4.79793 | -73.64872 | 20374 ft | 438 kts | 51° |
| 2026-04-25 11:53 | 4.81677 | -73.62470 | 20720 ft | 439 kts | 51° |
| 2026-04-25 11:54 | 4.83567 | -73.60059 | 21039 ft | 440 kts | 51° |
| 2026-04-25 11:54 | 4.85460 | -73.57643 | 21347 ft | 442 kts | 51° |
| 2026-04-25 11:54 | 4.89272 | -73.52776 | 21936 ft | 445 kts | 51° |
| 2026-04-25 11:55 | 4.91186 | -73.50332 | 22179 ft | 447 kts | 51° |
| 2026-04-25 11:55 | 4.93112 | -73.47873 | 22492 ft | 449 kts | 51° |
| 2026-04-25 11:55 | 4.95042 | -73.45409 | 22787 ft | 451 kts | 51° |
| 2026-04-25 11:55 | 4.96983 | -73.42930 | 23096 ft | 452 kts | 51° |
| 2026-04-25 11:56 | 4.98928 | -73.40446 | 23401 ft | 454 kts | 51° |
| 2026-04-25 11:56 | 5.00882 | -73.37949 | 23676 ft | 456 kts | 51° |
| 2026-04-25 11:56 | 5.02844 | -73.35443 | 23875 ft | 458 kts | 51° |
| 2026-04-25 11:56 | 5.04816 | -73.32924 | 24106 ft | 459 kts | 51° |
| 2026-04-25 11:57 | 5.06792 | -73.30398 | 24353 ft | 461 kts | 52° |
| 2026-04-25 11:57 | 5.08748 | -73.27899 | 24613 ft | 462 kts | 52° |
| 2026-04-25 11:57 | 5.10761 | -73.25326 | 24902 ft | 464 kts | 52° |
| 2026-04-25 11:57 | 5.12728 | -73.22812 | 25101 ft | 466 kts | 52° |
| 2026-04-25 11:58 | 5.14733 | -73.20250 | 25382 ft | 468 kts | 52° |
| 2026-04-25 11:58 | 5.16745 | -73.17677 | 25669 ft | 469 kts | 52° |
| 2026-04-25 11:58 | 5.18761 | -73.15099 | 25974 ft | 471 kts | 52° |
| 2026-04-25 11:58 | 5.20789 | -73.12506 | 26287 ft | 473 kts | 52° |
| 2026-04-25 11:59 | 5.22817 | -73.09911 | 26607 ft | 475 kts | 52° |
| 2026-04-25 11:59 | 5.24861 | -73.07297 | 26849 ft | 476 kts | 52° |
| 2026-04-25 11:59 | 5.26911 | -73.04675 | 27238 ft | 479 kts | 53° |
| 2026-04-25 12:00 | 5.31035 | -72.99397 | 27921 ft | 483 kts | 53° |
| 2026-04-25 12:00 | 5.33108 | -72.96744 | 28261 ft | 485 kts | 53° |
| 2026-04-25 12:00 | 5.37285 | -72.91398 | 28913 ft | 488 kts | 53° |
| 2026-04-25 12:01 | 5.39388 | -72.88706 | 29234 ft | 491 kts | 53° |
| 2026-04-25 12:01 | 5.41496 | -72.86007 | 29515 ft | 493 kts | 53° |
| 2026-04-25 12:01 | 5.43614 | -72.83294 | 29802 ft | 495 kts | 53° |
| 2026-04-25 12:01 | 5.45741 | -72.80571 | 30058 ft | 496 kts | 53° |
| 2026-04-25 12:02 | 5.50030 | -72.75077 | 30426 ft | 502 kts | 53° |
| 2026-04-25 12:02 | 5.52189 | -72.72311 | 30655 ft | 504 kts | 53° |
| 2026-04-25 12:02 | 5.54349 | -72.69544 | 30925 ft | 504 kts | 53° |
| 2026-04-25 12:03 | 5.56509 | -72.66776 | 31210 ft | 503 kts | 53° |
| 2026-04-25 12:03 | 5.58667 | -72.64012 | 31535 ft | 502 kts | 54° |
| 2026-04-25 12:03 | 5.60814 | -72.61260 | 31847 ft | 501 kts | 54° |
| 2026-04-25 12:03 | 5.62960 | -72.58508 | 32146 ft | 500 kts | 54° |
| 2026-04-25 12:04 | 5.65106 | -72.55756 | 32427 ft | 500 kts | 54° |
| 2026-04-25 12:04 | 5.67247 | -72.53012 | 32716 ft | 499 kts | 54° |
| 2026-04-25 12:04 | 5.69380 | -72.50276 | 33036 ft | 497 kts | 54° |
| 2026-04-25 12:04 | 5.71508 | -72.47549 | 33348 ft | 496 kts | 54° |
| 2026-04-25 12:05 | 5.73636 | -72.44818 | 33644 ft | 495 kts | 54° |
| 2026-04-25 12:05 | 5.75755 | -72.42100 | 33936 ft | 494 kts | 54° |
| 2026-04-25 12:05 | 5.77868 | -72.39388 | 34175 ft | 493 kts | 54° |
| 2026-04-25 12:05 | 5.79981 | -72.36677 | 34408 ft | 493 kts | 54° |
| 2026-04-25 12:06 | 5.82094 | -72.33965 | 34656 ft | 492 kts | 54° |
| 2026-04-25 12:06 | 5.84203 | -72.31258 | 34888 ft | 492 kts | 54° |
| 2026-04-25 12:06 | 5.86307 | -72.28558 | 35128 ft | 491 kts | 54° |
| 2026-04-25 12:06 | 5.88415 | -72.25851 | 35339 ft | 491 kts | 54° |
| 2026-04-25 12:07 | 5.90485 | -72.23192 | 35520 ft | 490 kts | 54° |
| 2026-04-25 12:07 | 5.92608 | -72.20466 | 35753 ft | 489 kts | 54° |
| 2026-04-25 12:07 | 5.94671 | -72.17815 | 36001 ft | 488 kts | 54° |
| 2026-04-25 12:07 | 5.96756 | -72.15136 | 36183 ft | 487 kts | 54° |
| 2026-04-25 12:08 | 5.98845 | -72.12450 | 36381 ft | 487 kts | 54° |
| 2026-04-25 12:08 | 6.00929 | -72.09771 | 36520 ft | 486 kts | 54° |
| 2026-04-25 12:08 | 6.03007 | -72.07100 | 36735 ft | 486 kts | 54° |
| 2026-04-25 12:08 | 6.05091 | -72.04421 | 36897 ft | 485 kts | 54° |
| 2026-04-25 12:09 | 6.07165 | -72.01754 | 37015 ft | 486 kts | 54° |
| 2026-04-25 12:09 | 6.08550 | -71.99973 | 37043 ft | 488 kts | 54° |
| 2026-04-25 12:09 | 6.13445 | -71.93676 | 37010 ft | 489 kts | 54° |
| 2026-04-25 12:10 | 6.17635 | -71.88287 | 37008 ft | 490 kts | 54° |
| 2026-04-25 12:10 | 6.21133 | -71.83786 | 36990 ft | 491 kts | 54° |
| 2026-04-25 12:11 | 6.25333 | -71.78380 | 36998 ft | 491 kts | 54° |
| 2026-04-25 12:11 | 6.29543 | -71.72960 | 36998 ft | 492 kts | 54° |
| 2026-04-25 12:12 | 6.33751 | -71.67540 | 36990 ft | 491 kts | 54° |
| 2026-04-25 12:12 | 6.37950 | -71.62130 | 36990 ft | 491 kts | 54° |
| 2026-04-25 12:13 | 6.42160 | -71.56705 | 36988 ft | 491 kts | 54° |
| 2026-04-25 12:13 | 6.46366 | -71.51281 | 36981 ft | 493 kts | 54° |
| 2026-04-25 12:14 | 6.50589 | -71.45836 | 36975 ft | 494 kts | 54° |
| 2026-04-25 12:14 | 6.54812 | -71.40389 | 36971 ft | 493 kts | 54° |
| 2026-04-25 12:15 | 6.59028 | -71.34950 | 36974 ft | 493 kts | 54° |
| 2026-04-25 12:15 | 6.63241 | -71.29512 | 36975 ft | 493 kts | 54° |
| 2026-04-25 12:16 | 6.67458 | -71.24068 | 36969 ft | 493 kts | 54° |
| 2026-04-25 12:16 | 6.71672 | -71.18625 | 36970 ft | 493 kts | 54° |
| 2026-04-25 12:17 | 6.75858 | -71.13217 | 36972 ft | 493 kts | 54° |
| 2026-04-25 12:17 | 6.80071 | -71.07771 | 36968 ft | 493 kts | 54° |
| 2026-04-25 12:18 | 6.84284 | -71.02325 | 36971 ft | 493 kts | 54° |
| 2026-04-25 12:18 | 6.88497 | -70.96878 | 36973 ft | 493 kts | 54° |
| 2026-04-25 12:19 | 6.94812 | -70.88708 | 36971 ft | 493 kts | 54° |
| 2026-04-25 12:20 | 6.99029 | -70.83251 | 36976 ft | 495 kts | 53° |
| 2026-04-25 12:20 | 7.03257 | -70.77776 | 36964 ft | 496 kts | 53° |
| 2026-04-25 12:21 | 7.07636 | -70.72406 | 36968 ft | 497 kts | 49° |
| 2026-04-25 12:21 | 7.12389 | -70.67349 | 36966 ft | 497 kts | 47° |
| 2026-04-25 12:22 | 7.17200 | -70.62339 | 36966 ft | 498 kts | 47° |
| 2026-04-25 12:22 | 7.22040 | -70.57310 | 36971 ft | 502 kts | 47° |
| 2026-04-25 12:23 | 7.26892 | -70.52255 | 36977 ft | 502 kts | 47° |
| 2026-04-25 12:23 | 7.31738 | -70.47197 | 36980 ft | 501 kts | 47° |
| 2026-04-25 12:24 | 7.36573 | -70.42149 | 36980 ft | 501 kts | 47° |
| 2026-04-25 12:24 | 7.41405 | -70.37101 | 36980 ft | 501 kts | 47° |
| 2026-04-25 12:25 | 7.46214 | -70.32077 | 36980 ft | 501 kts | 47° |
| 2026-04-25 12:25 | 7.51077 | -70.26994 | 36985 ft | 501 kts | 47° |
| 2026-04-25 12:26 | 7.55916 | -70.21935 | 36982 ft | 501 kts | 47° |
| 2026-04-25 12:26 | 7.60747 | -70.16881 | 36985 ft | 501 kts | 47° |
| 2026-04-25 12:27 | 7.65556 | -70.11850 | 36985 ft | 501 kts | 47° |
| 2026-04-25 12:27 | 7.70391 | -70.06790 | 36981 ft | 501 kts | 47° |
| 2026-04-25 12:28 | 7.75230 | -70.01724 | 36981 ft | 501 kts | 47° |
| 2026-04-25 12:28 | 7.80061 | -69.96664 | 36982 ft | 501 kts | 47° |
| 2026-04-25 12:29 | 7.84898 | -69.91596 | 36983 ft | 501 kts | 47° |
| 2026-04-25 12:29 | 7.89737 | -69.86525 | 36985 ft | 502 kts | 47° |
| 2026-04-25 12:30 | 7.93764 | -69.82302 | 36984 ft | 503 kts | 47° |
| 2026-04-25 12:30 | 7.99447 | -69.76342 | 36987 ft | 504 kts | 47° |
| 2026-04-25 12:31 | 8.04283 | -69.71268 | 36988 ft | 504 kts | 47° |
| 2026-04-25 12:31 | 8.09170 | -69.66139 | 36988 ft | 504 kts | 47° |
| 2026-04-25 12:32 | 8.14034 | -69.61033 | 36989 ft | 504 kts | 47° |
| 2026-04-25 12:32 | 8.18893 | -69.55928 | 36992 ft | 504 kts | 47° |
| 2026-04-25 12:33 | 8.23730 | -69.50846 | 36991 ft | 506 kts | 47° |
| 2026-04-25 12:33 | 8.28631 | -69.45693 | 36990 ft | 506 kts | 47° |
| 2026-04-25 12:34 | 8.33476 | -69.40598 | 36989 ft | 506 kts | 47° |
| 2026-04-25 12:34 | 8.38352 | -69.35469 | 36990 ft | 506 kts | 47° |
| 2026-04-25 12:35 | 8.43221 | -69.30345 | 36990 ft | 506 kts | 47° |
| 2026-04-25 12:35 | 8.48095 | -69.25214 | 36988 ft | 506 kts | 47° |
| 2026-04-25 12:36 | 8.52970 | -69.20079 | 36989 ft | 506 kts | 47° |
| 2026-04-25 12:36 | 8.57850 | -69.14937 | 36988 ft | 508 kts | 47° |
| 2026-04-25 12:37 | 8.62746 | -69.09776 | 36987 ft | 508 kts | 47° |
| 2026-04-25 12:37 | 8.67631 | -69.04625 | 36987 ft | 508 kts | 47° |
| 2026-04-25 12:38 | 8.72521 | -68.99467 | 36987 ft | 508 kts | 47° |
| 2026-04-25 12:38 | 8.77421 | -68.94296 | 36988 ft | 508 kts | 47° |
| 2026-04-25 12:39 | 8.82309 | -68.89135 | 36991 ft | 508 kts | 47° |
| 2026-04-25 12:39 | 8.87197 | -68.83972 | 36984 ft | 508 kts | 47° |
| 2026-04-25 12:40 | 8.92086 | -68.78807 | 36985 ft | 508 kts | 47° |
| 2026-04-25 12:40 | 8.96974 | -68.73640 | 36985 ft | 508 kts | 47° |
| 2026-04-25 12:41 | 9.01862 | -68.68471 | 36985 ft | 508 kts | 47° |
| 2026-04-25 12:41 | 9.06743 | -68.63307 | 36985 ft | 508 kts | 47° |
| 2026-04-25 12:42 | 9.11626 | -68.58139 | 36985 ft | 508 kts | 47° |
| 2026-04-25 12:42 | 9.16505 | -68.52973 | 36987 ft | 508 kts | 47° |
| 2026-04-25 12:43 | 9.21394 | -68.47793 | 36985 ft | 509 kts | 47° |
| 2026-04-25 12:43 | 9.28700 | -68.40050 | 36985 ft | 509 kts | 47° |
| 2026-04-25 12:44 | 9.33588 | -68.34867 | 36985 ft | 509 kts | 47° |
| 2026-04-25 12:45 | 9.40924 | -68.27084 | 36985 ft | 509 kts | 47° |
| 2026-04-25 12:45 | 9.48256 | -68.19300 | 36989 ft | 509 kts | 47° |
| 2026-04-25 12:46 | 9.53147 | -68.14103 | 36989 ft | 512 kts | 47° |
| 2026-04-25 12:46 | 9.58074 | -68.08868 | 36996 ft | 513 kts | 47° |
| 2026-04-25 12:47 | 9.62988 | -68.03643 | 36998 ft | 513 kts | 47° |
| 2026-04-25 12:47 | 9.67910 | -67.98407 | 36996 ft | 513 kts | 47° |
| 2026-04-25 12:48 | 9.72823 | -67.93179 | 37004 ft | 512 kts | 47° |
| 2026-04-25 12:48 | 9.76903 | -67.88834 | 37004 ft | 512 kts | 47° |
| 2026-04-25 12:49 | 9.82655 | -67.82707 | 37011 ft | 513 kts | 47° |
| 2026-04-25 12:49 | 9.87579 | -67.77461 | 37019 ft | 514 kts | 47° |
| 2026-04-25 12:50 | 9.92510 | -67.72204 | 37016 ft | 514 kts | 47° |
| 2026-04-25 12:50 | 9.97409 | -67.66979 | 37020 ft | 514 kts | 47° |
| 2026-04-25 12:51 | 10.02333 | -67.61724 | 37019 ft | 514 kts | 47° |
| 2026-04-25 12:51 | 10.07258 | -67.56465 | 37015 ft | 514 kts | 47° |
| 2026-04-25 12:52 | 10.12184 | -67.51203 | 37021 ft | 515 kts | 48° |
| 2026-04-25 12:52 | 10.17118 | -67.45931 | 37019 ft | 515 kts | 48° |
| 2026-04-25 12:53 | 10.22052 | -67.40655 | 37018 ft | 515 kts | 48° |
| 2026-04-25 12:53 | 10.26989 | -67.35374 | 37014 ft | 515 kts | 48° |
| 2026-04-25 12:54 | 10.31920 | -67.30097 | 37020 ft | 515 kts | 48° |
| 2026-04-25 12:54 | 10.36854 | -67.24813 | 37028 ft | 516 kts | 48° |
| 2026-04-25 12:55 | 10.40124 | -67.21311 | 37023 ft | 516 kts | 48° |
| 2026-04-25 12:55 | 10.46690 | -67.14273 | 37017 ft | 516 kts | 48° |
| 2026-04-25 12:56 | 10.51639 | -67.08965 | 37016 ft | 518 kts | 48° |
| 2026-04-25 12:56 | 10.56597 | -67.03646 | 36938 ft | 518 kts | 48° |
| 2026-04-25 12:57 | 10.61366 | -66.98180 | 36943 ft | 516 kts | 56° |
| 2026-04-25 12:57 | 10.65488 | -66.92218 | 36935 ft | 515 kts | 58° |
| 2026-04-25 12:58 | 10.69494 | -66.86181 | 36948 ft | 516 kts | 58° |
| 2026-04-25 12:58 | 10.73501 | -66.80111 | 36960 ft | 516 kts | 58° |
| 2026-04-25 12:59 | 10.77515 | -66.74050 | 36972 ft | 517 kts | 58° |
| 2026-04-25 12:59 | 10.81539 | -66.67985 | 36965 ft | 518 kts | 58° |
| 2026-04-25 13:00 | 10.84235 | -66.63920 | 36968 ft | 518 kts | 58° |
| 2026-04-25 13:00 | 10.88920 | -66.56856 | 36964 ft | 518 kts | 58° |
| 2026-04-25 13:01 | 10.92950 | -66.50773 | 36966 ft | 518 kts | 58° |
| 2026-04-25 13:01 | 10.96977 | -66.44692 | 36961 ft | 519 kts | 58° |
| 2026-04-25 13:02 | 11.01005 | -66.38607 | 36961 ft | 518 kts | 58° |
| 2026-04-25 13:02 | 11.05057 | -66.32526 | 36963 ft | 519 kts | 57° |
| 2026-04-25 13:03 | 11.09172 | -66.26492 | 36963 ft | 519 kts | 57° |
| 2026-04-25 13:03 | 11.13291 | -66.20462 | 36966 ft | 519 kts | 57° |
| 2026-04-25 13:04 | 11.17407 | -66.14415 | 36963 ft | 519 kts | 57° |
| 2026-04-25 13:04 | 11.21522 | -66.08355 | 36966 ft | 520 kts | 57° |
| 2026-04-25 13:05 | 11.25628 | -66.02301 | 36966 ft | 519 kts | 57° |
| 2026-04-25 13:05 | 11.29732 | -65.96247 | 36966 ft | 519 kts | 57° |
| 2026-04-25 13:06 | 11.33837 | -65.90190 | 36965 ft | 520 kts | 57° |
| 2026-04-25 13:06 | 11.37946 | -65.84122 | 36967 ft | 520 kts | 57° |
| 2026-04-25 13:07 | 11.42059 | -65.78046 | 36966 ft | 521 kts | 57° |
| 2026-04-25 13:07 | 11.46172 | -65.71968 | 36966 ft | 521 kts | 57° |
| 2026-04-25 13:08 | 11.50278 | -65.65887 | 36966 ft | 521 kts | 57° |
| 2026-04-25 13:08 | 11.54381 | -65.59807 | 36968 ft | 521 kts | 57° |
| 2026-04-25 13:09 | 11.58498 | -65.53704 | 36968 ft | 523 kts | 57° |
| 2026-04-25 13:09 | 11.62592 | -65.47632 | 36966 ft | 523 kts | 57° |
| 2026-04-25 13:10 | 11.66713 | -65.41517 | 36970 ft | 523 kts | 57° |
| 2026-04-25 13:10 | 11.70870 | -65.35418 | 36968 ft | 524 kts | 56° |
| 2026-04-25 13:11 | 11.75084 | -65.29349 | 36969 ft | 524 kts | 56° |
| 2026-04-25 13:11 | 11.79294 | -65.23282 | 36971 ft | 524 kts | 56° |
| 2026-04-25 13:12 | 11.83493 | -65.17209 | 36972 ft | 524 kts | 56° |
| 2026-04-25 13:12 | 11.86984 | -65.12151 | 36971 ft | 524 kts | 56° |
| 2026-04-25 13:13 | 11.91889 | -65.05036 | 36968 ft | 524 kts | 56° |
| 2026-04-25 13:13 | 11.96082 | -64.98952 | 36970 ft | 524 kts | 56° |
| 2026-04-25 13:14 | 12.00276 | -64.92864 | 36968 ft | 523 kts | 56° |
| 2026-04-25 13:14 | 12.04464 | -64.86780 | 36968 ft | 523 kts | 57° |
| 2026-04-25 13:15 | 12.08645 | -64.80701 | 36971 ft | 523 kts | 57° |
| 2026-04-25 13:15 | 12.12830 | -64.74614 | 36969 ft | 523 kts | 57° |
| 2026-04-25 13:16 | 12.16983 | -64.68568 | 36972 ft | 523 kts | 57° |
| 2026-04-25 13:16 | 12.21162 | -64.62483 | 36971 ft | 523 kts | 57° |
| 2026-04-25 13:17 | 12.25343 | -64.56389 | 36975 ft | 523 kts | 57° |
| 2026-04-25 13:17 | 12.29522 | -64.50295 | 36971 ft | 524 kts | 57° |
| 2026-04-25 13:18 | 12.33703 | -64.44194 | 36973 ft | 524 kts | 57° |
| 2026-04-25 13:18 | 12.37879 | -64.38093 | 36974 ft | 524 kts | 57° |
| 2026-04-25 13:19 | 12.42015 | -64.31962 | 36973 ft | 523 kts | 57° |
| 2026-04-25 13:19 | 12.45440 | -64.26863 | 36973 ft | 523 kts | 57° |
| 2026-04-25 13:20 | 12.50262 | -64.19696 | 36976 ft | 523 kts | 57° |
| 2026-04-25 13:20 | 12.54387 | -64.13572 | 36974 ft | 523 kts | 57° |
| 2026-04-25 13:21 | 12.58522 | -64.07430 | 36975 ft | 524 kts | 57° |
| 2026-04-25 13:21 | 12.62653 | -64.01291 | 36976 ft | 523 kts | 57° |
| 2026-04-25 13:22 | 12.66777 | -63.95157 | 36977 ft | 523 kts | 57° |
| 2026-04-25 13:23 | 12.72958 | -63.85957 | 37119 ft | 522 kts | 57° |
| 2026-04-25 13:23 | 12.75017 | -63.82889 | 37245 ft | 522 kts | 57° |
| 2026-04-25 13:23 | 12.77076 | -63.79821 | 37373 ft | 522 kts | 57° |
| 2026-04-25 13:23 | 12.79133 | -63.76754 | 37500 ft | 522 kts | 57° |
| 2026-04-25 13:24 | 12.81188 | -63.73691 | 37633 ft | 522 kts | 57° |
| 2026-04-25 13:24 | 12.83241 | -63.70622 | 37775 ft | 522 kts | 57° |
| 2026-04-25 13:24 | 12.85269 | -63.67586 | 37887 ft | 523 kts | 57° |
| 2026-04-25 13:24 | 12.87473 | -63.64558 | 38037 ft | 524 kts | 53° |
| 2026-04-25 13:25 | 12.89721 | -63.61683 | 38159 ft | 524 kts | 52° |
| 2026-04-25 13:25 | 12.92055 | -63.58748 | 38276 ft | 524 kts | 52° |
| 2026-04-25 13:25 | 12.94344 | -63.55897 | 38436 ft | 524 kts | 52° |
| 2026-04-25 13:25 | 12.96665 | -63.53016 | 38553 ft | 524 kts | 52° |
| 2026-04-25 13:26 | 12.98983 | -63.50140 | 38674 ft | 524 kts | 52° |
| 2026-04-25 13:26 | 13.01303 | -63.47258 | 38804 ft | 524 kts | 52° |
| 2026-04-25 13:26 | 13.03619 | -63.44377 | 38903 ft | 523 kts | 52° |
| 2026-04-25 13:27 | 13.08245 | -63.38614 | 38982 ft | 522 kts | 52° |
| 2026-04-25 13:27 | 13.12853 | -63.32864 | 38977 ft | 521 kts | 52° |
| 2026-04-25 13:28 | 13.17455 | -63.27117 | 38979 ft | 521 kts | 52° |
| 2026-04-25 13:28 | 13.22058 | -63.21366 | 38980 ft | 521 kts | 52° |
| 2026-04-25 13:29 | 13.26659 | -63.15613 | 38979 ft | 521 kts | 52° |
| 2026-04-25 13:29 | 13.31260 | -63.09857 | 38979 ft | 521 kts | 52° |
| 2026-04-25 13:30 | 13.38155 | -63.01225 | 38980 ft | 521 kts | 52° |
| 2026-04-25 13:31 | 13.45052 | -62.92580 | 38981 ft | 522 kts | 52° |
| 2026-04-25 13:31 | 13.49653 | -62.86808 | 38982 ft | 522 kts | 52° |
| 2026-04-25 13:32 | 13.54256 | -62.81030 | 38982 ft | 522 kts | 52° |
| 2026-04-25 13:32 | 13.58865 | -62.75242 | 38985 ft | 524 kts | 52° |
| 2026-04-25 13:33 | 13.63480 | -62.69441 | 38983 ft | 524 kts | 52° |
| 2026-04-25 13:33 | 13.68093 | -62.63639 | 38982 ft | 524 kts | 52° |
| 2026-04-25 13:34 | 13.72673 | -62.57876 | 38983 ft | 524 kts | 52° |
| 2026-04-25 13:34 | 13.77280 | -62.52072 | 38986 ft | 524 kts | 52° |
| 2026-04-25 13:35 | 13.81922 | -62.46222 | 38988 ft | 526 kts | 52° |
| 2026-04-25 13:35 | 13.86521 | -62.40421 | 38989 ft | 526 kts | 52° |
| 2026-04-25 13:36 | 13.91147 | -62.34583 | 38982 ft | 526 kts | 52° |
| 2026-04-25 13:36 | 13.95773 | -62.28741 | 38987 ft | 526 kts | 52° |
| 2026-04-25 13:37 | 14.00400 | -62.22892 | 38990 ft | 526 kts | 52° |
| 2026-04-25 13:37 | 14.05024 | -62.17044 | 38987 ft | 527 kts | 52° |
| 2026-04-25 13:38 | 14.09660 | -62.11176 | 38994 ft | 528 kts | 52° |
| 2026-04-25 13:38 | 14.14293 | -62.05308 | 38994 ft | 528 kts | 52° |
| 2026-04-25 13:39 | 14.18922 | -61.99442 | 38986 ft | 528 kts | 52° |
| 2026-04-25 13:39 | 14.23552 | -61.93568 | 38987 ft | 528 kts | 52° |
| 2026-04-25 13:40 | 14.28178 | -61.87697 | 38987 ft | 528 kts | 52° |
| 2026-04-25 13:40 | 14.32807 | -61.81817 | 38987 ft | 528 kts | 52° |
| 2026-04-25 13:41 | 14.37410 | -61.75966 | 38988 ft | 528 kts | 52° |
| 2026-04-25 13:41 | 14.42030 | -61.70090 | 38989 ft | 528 kts | 52° |
| 2026-04-25 13:42 | 14.46661 | -61.64195 | 38992 ft | 528 kts | 52° |
| 2026-04-25 13:42 | 14.51283 | -61.58306 | 38987 ft | 529 kts | 52° |
| 2026-04-25 13:43 | 14.55917 | -61.52397 | 38988 ft | 529 kts | 52° |
| 2026-04-25 13:43 | 14.60550 | -61.46487 | 38992 ft | 529 kts | 52° |
| 2026-04-25 13:44 | 14.65179 | -61.40577 | 38991 ft | 529 kts | 52° |
| 2026-04-25 13:44 | 14.69802 | -61.34670 | 38991 ft | 529 kts | 52° |
| 2026-04-25 13:45 | 14.74428 | -61.28755 | 38998 ft | 529 kts | 52° |
| 2026-04-25 13:45 | 14.79061 | -61.22827 | 38992 ft | 530 kts | 52° |
| 2026-04-25 13:46 | 14.83690 | -61.16899 | 38993 ft | 530 kts | 52° |
| 2026-04-25 13:46 | 14.88319 | -61.10972 | 39000 ft | 530 kts | 52° |
| 2026-04-25 13:47 | 14.92946 | -61.05037 | 39001 ft | 530 kts | 52° |
| 2026-04-25 13:47 | 14.97569 | -60.99098 | 38998 ft | 530 kts | 52° |
| 2026-04-25 13:48 | 15.02188 | -60.93162 | 39007 ft | 530 kts | 52° |
| 2026-04-25 13:48 | 15.06031 | -60.88222 | 39002 ft | 531 kts | 52° |
| 2026-04-25 13:49 | 15.10661 | -60.82265 | 39004 ft | 531 kts | 52° |
| 2026-04-25 13:49 | 15.15287 | -60.76309 | 39003 ft | 531 kts | 52° |
| 2026-04-25 13:50 | 15.20661 | -60.69385 | 39005 ft | 530 kts | 51° |
| 2026-04-25 13:50 | 15.24528 | -60.64397 | 39003 ft | 530 kts | 51° |
| 2026-04-25 13:51 | 15.29148 | -60.58436 | 39004 ft | 531 kts | 52° |
| 2026-04-25 13:51 | 15.33778 | -60.52456 | 39003 ft | 533 kts | 52° |
| 2026-04-25 13:52 | 15.38419 | -60.46458 | 39001 ft | 533 kts | 52° |
| 2026-04-25 13:52 | 15.43051 | -60.40464 | 39003 ft | 533 kts | 51° |
| 2026-04-25 13:53 | 15.47681 | -60.34471 | 39005 ft | 532 kts | 51° |
| 2026-04-25 13:53 | 15.52311 | -60.28473 | 39003 ft | 532 kts | 51° |
| 2026-04-25 13:54 | 15.56905 | -60.22516 | 39009 ft | 534 kts | 51° |
| 2026-04-25 13:54 | 15.61577 | -60.16452 | 39005 ft | 534 kts | 51° |
| 2026-04-25 13:55 | 15.66178 | -60.10477 | 39002 ft | 533 kts | 51° |
| 2026-04-25 13:55 | 15.70829 | -60.04431 | 39007 ft | 533 kts | 51° |
| 2026-04-25 13:56 | 15.75424 | -59.98455 | 39007 ft | 533 kts | 51° |
| 2026-04-25 13:56 | 15.80044 | -59.92440 | 39009 ft | 533 kts | 51° |
| 2026-04-25 13:57 | 15.84661 | -59.86424 | 39007 ft | 533 kts | 51° |
| 2026-04-25 13:57 | 15.89275 | -59.80407 | 39008 ft | 533 kts | 51° |
| 2026-04-25 13:58 | 15.93891 | -59.74383 | 39007 ft | 533 kts | 51° |
| 2026-04-25 13:58 | 15.98500 | -59.68363 | 39006 ft | 533 kts | 51° |
| 2026-04-25 13:59 | 16.03111 | -59.62335 | 39006 ft | 533 kts | 51° |
| 2026-04-25 13:59 | 16.07722 | -59.56302 | 39012 ft | 533 kts | 51° |
| 2026-04-25 14:00 | 16.12335 | -59.50262 | 39013 ft | 534 kts | 51° |
| 2026-04-25 14:00 | 16.16954 | -59.44209 | 39016 ft | 534 kts | 51° |
| 2026-04-25 14:01 | 16.21571 | -59.38163 | 39013 ft | 534 kts | 51° |
| 2026-04-25 14:01 | 16.26183 | -59.32105 | 39012 ft | 534 kts | 51° |
| 2026-04-25 14:02 | 16.30786 | -59.26054 | 39019 ft | 533 kts | 51° |
| 2026-04-25 14:02 | 16.35400 | -59.19987 | 39016 ft | 534 kts | 51° |
| 2026-04-25 14:03 | 16.40011 | -59.13919 | 39014 ft | 535 kts | 51° |
| 2026-04-25 14:03 | 16.44625 | -59.07843 | 39013 ft | 535 kts | 51° |
| 2026-04-25 14:04 | 16.49238 | -59.01762 | 39010 ft | 534 kts | 51° |
| 2026-04-25 14:04 | 16.53843 | -58.95686 | 39015 ft | 534 kts | 51° |
| 2026-04-25 14:05 | 16.58447 | -58.89607 | 39019 ft | 535 kts | 51° |
| 2026-04-25 14:05 | 16.63063 | -58.83507 | 39018 ft | 536 kts | 51° |
| 2026-04-25 14:06 | 16.67671 | -58.77412 | 39018 ft | 536 kts | 51° |
| 2026-04-25 14:06 | 16.72286 | -58.71303 | 39018 ft | 536 kts | 51° |
| 2026-04-25 14:07 | 16.76896 | -58.65194 | 39018 ft | 536 kts | 51° |
| 2026-04-25 14:07 | 16.81508 | -58.59078 | 39016 ft | 536 kts | 52° |
| 2026-04-25 14:08 | 16.86124 | -58.52952 | 39018 ft | 537 kts | 51° |
| 2026-04-25 14:08 | 16.90704 | -58.46867 | 39015 ft | 537 kts | 51° |
| 2026-04-25 14:09 | 16.95312 | -58.40739 | 39019 ft | 536 kts | 51° |
| 2026-04-25 14:09 | 16.99914 | -58.34615 | 39023 ft | 536 kts | 51° |
| 2026-04-25 14:10 | 17.04514 | -58.28488 | 39018 ft | 536 kts | 52° |
| 2026-04-25 14:10 | 17.09124 | -58.22342 | 39021 ft | 538 kts | 52° |
| 2026-04-25 14:11 | 17.13734 | -58.16190 | 39027 ft | 537 kts | 51° |
| 2026-04-25 14:11 | 17.18343 | -58.10035 | 39029 ft | 536 kts | 51° |
| 2026-04-25 14:12 | 17.22938 | -58.03891 | 39030 ft | 536 kts | 51° |
| 2026-04-25 14:12 | 17.27532 | -57.97744 | 39022 ft | 537 kts | 52° |
| 2026-04-25 14:13 | 17.32142 | -57.91571 | 39038 ft | 539 kts | 51° |
| 2026-04-25 14:13 | 17.36747 | -57.85398 | 39023 ft | 538 kts | 51° |
| 2026-04-25 14:14 | 17.41355 | -57.79216 | 39022 ft | 538 kts | 51° |
| 2026-04-25 14:14 | 17.45957 | -57.73035 | 39022 ft | 538 kts | 51° |
| 2026-04-25 14:15 | 17.50554 | -57.66856 | 39039 ft | 538 kts | 52° |
| 2026-04-25 14:15 | 17.55160 | -57.60660 | 39032 ft | 539 kts | 51° |
| 2026-04-25 14:16 | 17.59766 | -57.54457 | 39031 ft | 539 kts | 51° |
| 2026-04-25 14:16 | 17.64369 | -57.48253 | 39033 ft | 539 kts | 52° |
| 2026-04-25 14:17 | 17.68976 | -57.42045 | 39031 ft | 539 kts | 52° |
| 2026-04-25 14:17 | 17.73573 | -57.35830 | 39030 ft | 539 kts | 51° |
| 2026-04-25 14:18 | 17.78168 | -57.29614 | 39035 ft | 539 kts | 51° |
| 2026-04-25 14:18 | 17.82737 | -57.23430 | 39038 ft | 540 kts | 51° |
| 2026-04-25 14:19 | 17.87339 | -57.17197 | 39039 ft | 540 kts | 51° |
| 2026-04-25 14:19 | 17.91944 | -57.10953 | 39032 ft | 540 kts | 51° |
| 2026-04-25 14:20 | 17.96464 | -57.04660 | 39039 ft | 540 kts | 57° |
| 2026-04-25 14:20 | 17.99492 | -56.97502 | 39048 ft | 538 kts | 77° |
| 2026-04-25 14:21 | 18.02441 | -56.90277 | 39044 ft | 541 kts | 58° |
| 2026-04-25 14:21 | 18.05799 | -56.83200 | 39036 ft | 542 kts | 65° |
| 2026-04-25 14:22 | 18.09051 | -56.76067 | 39043 ft | 541 kts | 65° |
| 2026-04-25 14:22 | 18.12291 | -56.68941 | 39040 ft | 541 kts | 65° |
| 2026-04-25 14:23 | 18.15532 | -56.61790 | 39043 ft | 541 kts | 65° |
| 2026-04-25 14:23 | 18.18762 | -56.54648 | 39038 ft | 541 kts | 65° |
| 2026-04-25 14:24 | 18.21967 | -56.47552 | 39039 ft | 540 kts | 65° |
| 2026-04-25 14:24 | 18.24668 | -56.41568 | 39042 ft | 540 kts | 65° |
| 2026-04-25 14:25 | 18.28408 | -56.33271 | 39045 ft | 540 kts | 65° |
| 2026-04-25 14:25 | 18.31624 | -56.26126 | 39042 ft | 540 kts | 65° |
| 2026-04-25 14:26 | 18.34833 | -56.18990 | 39042 ft | 539 kts | 65° |
| 2026-04-25 14:26 | 18.38036 | -56.11857 | 39046 ft | 539 kts | 65° |
| 2026-04-25 14:27 | 18.41246 | -56.04702 | 39047 ft | 541 kts | 65° |
| 2026-04-25 14:27 | 18.44462 | -55.97524 | 39047 ft | 541 kts | 65° |
| 2026-04-25 14:28 | 18.47669 | -55.90356 | 39041 ft | 541 kts | 65° |
| 2026-04-25 14:28 | 18.50881 | -55.83170 | 39041 ft | 542 kts | 65° |
| 2026-04-25 14:29 | 18.54065 | -55.76037 | 39046 ft | 541 kts | 65° |
| 2026-04-25 14:29 | 18.57261 | -55.68869 | 39051 ft | 541 kts | 65° |
| 2026-04-25 14:30 | 18.60462 | -55.61680 | 39047 ft | 542 kts | 65° |
| 2026-04-25 14:30 | 18.65272 | -55.50861 | 39049 ft | 543 kts | 65° |
| 2026-04-25 14:31 | 18.68468 | -55.43663 | 39046 ft | 542 kts | 65° |
| 2026-04-25 14:31 | 18.71656 | -55.36471 | 39050 ft | 541 kts | 65° |
| 2026-04-25 14:32 | 18.74844 | -55.29273 | 39054 ft | 541 kts | 65° |
| 2026-04-25 14:32 | 18.78028 | -55.22075 | 39054 ft | 542 kts | 65° |
| 2026-04-25 14:33 | 18.81234 | -55.14815 | 39051 ft | 543 kts | 65° |
| 2026-04-25 14:33 | 18.84421 | -55.07592 | 39051 ft | 543 kts | 65° |
| 2026-04-25 14:34 | 18.87585 | -55.00412 | 39047 ft | 543 kts | 65° |
| 2026-04-25 14:34 | 18.90761 | -54.93194 | 39051 ft | 542 kts | 65° |
| 2026-04-25 14:35 | 18.93932 | -54.85981 | 39051 ft | 541 kts | 65° |
| 2026-04-25 14:35 | 18.97101 | -54.78761 | 39053 ft | 543 kts | 65° |
| 2026-04-25 14:36 | 19.00277 | -54.71517 | 39046 ft | 544 kts | 65° |
| 2026-04-25 14:36 | 19.03450 | -54.64269 | 39050 ft | 543 kts | 65° |
| 2026-04-25 14:37 | 19.06617 | -54.57029 | 39051 ft | 543 kts | 65° |
| 2026-04-25 14:37 | 19.09244 | -54.51012 | 39052 ft | 543 kts | 65° |
| 2026-04-25 14:38 | 19.12403 | -54.43772 | 39051 ft | 542 kts | 65° |
| 2026-04-25 14:38 | 19.15044 | -54.37712 | 39061 ft | 542 kts | 65° |
| 2026-04-25 14:39 | 19.18715 | -54.29276 | 39056 ft | 544 kts | 65° |
| 2026-04-25 14:39 | 19.20297 | -54.25638 | 39056 ft | 544 kts | 65° |
| 2026-04-25 14:40 | 19.25030 | -54.14738 | 39056 ft | 543 kts | 65° |
| 2026-04-25 14:40 | 19.28178 | -54.07474 | 39055 ft | 543 kts | 65° |
| 2026-04-25 14:41 | 19.31322 | -54.00213 | 39054 ft | 543 kts | 65° |
| 2026-04-25 14:41 | 19.34467 | -53.92938 | 39056 ft | 544 kts | 65° |
| 2026-04-25 14:42 | 19.37080 | -53.86888 | 39056 ft | 544 kts | 65° |
| 2026-04-25 14:42 | 19.40757 | -53.78361 | 39056 ft | 544 kts | 65° |
| 2026-04-25 14:43 | 19.43899 | -53.71066 | 39058 ft | 544 kts | 65° |
| 2026-04-25 14:43 | 19.47033 | -53.63779 | 39059 ft | 543 kts | 65° |
| 2026-04-25 14:44 | 19.50162 | -53.56495 | 39069 ft | 543 kts | 65° |
| 2026-04-25 14:44 | 19.53295 | -53.49191 | 39059 ft | 545 kts | 65° |
| 2026-04-25 14:45 | 19.56434 | -53.41864 | 39059 ft | 546 kts | 65° |
| 2026-04-25 14:45 | 19.59571 | -53.34532 | 39058 ft | 546 kts | 65° |
| 2026-04-25 14:46 | 19.62683 | -53.27247 | 39059 ft | 546 kts | 65° |
| 2026-04-25 14:46 | 19.65811 | -53.19917 | 39059 ft | 545 kts | 65° |
| 2026-04-25 14:47 | 19.68428 | -53.13776 | 39064 ft | 545 kts | 65° |
| 2026-04-25 14:47 | 19.72064 | -53.05231 | 39060 ft | 547 kts | 65° |
| 2026-04-25 14:48 | 19.75196 | -52.97863 | 39053 ft | 547 kts | 65° |
| 2026-04-25 14:48 | 19.78319 | -52.90503 | 39061 ft | 546 kts | 65° |
| 2026-04-25 14:49 | 19.81437 | -52.83147 | 39062 ft | 546 kts | 65° |
| 2026-04-25 14:49 | 19.84548 | -52.75797 | 39068 ft | 546 kts | 65° |
| 2026-04-25 14:50 | 19.87661 | -52.68429 | 39063 ft | 547 kts | 65° |
| 2026-04-25 14:50 | 19.90778 | -52.61045 | 39061 ft | 548 kts | 65° |
| 2026-04-25 14:51 | 19.93893 | -52.53656 | 39064 ft | 548 kts | 65° |
| 2026-04-25 14:51 | 19.97003 | -52.46268 | 39059 ft | 547 kts | 65° |
| 2026-04-25 14:52 | 20.00104 | -52.38891 | 39059 ft | 546 kts | 65° |
| 2026-04-25 14:52 | 20.02678 | -52.32760 | 39061 ft | 546 kts | 65° |
| 2026-04-25 14:53 | 20.06292 | -52.24140 | 39063 ft | 546 kts | 65° |
| 2026-04-25 14:53 | 20.09378 | -52.16768 | 39062 ft | 545 kts | 65° |
| 2026-04-25 14:54 | 20.12460 | -52.09396 | 39059 ft | 545 kts | 65° |
| 2026-04-25 14:54 | 20.15538 | -52.02021 | 39063 ft | 545 kts | 65° |
| 2026-04-25 14:55 | 20.18613 | -51.94645 | 39064 ft | 545 kts | 65° |
| 2026-04-25 14:55 | 20.21690 | -51.87253 | 39063 ft | 547 kts | 65° |
| 2026-04-25 14:56 | 20.24769 | -51.79848 | 39061 ft | 547 kts | 65° |
| 2026-04-25 14:56 | 20.27844 | -51.72439 | 39063 ft | 547 kts | 65° |
| 2026-04-25 14:57 | 20.30916 | -51.65028 | 39060 ft | 547 kts | 65° |
| 2026-04-25 14:57 | 20.33988 | -51.57608 | 39063 ft | 547 kts | 65° |
| 2026-04-25 14:58 | 20.37056 | -51.50186 | 39063 ft | 548 kts | 65° |
| 2026-04-25 14:58 | 20.40124 | -51.42753 | 39063 ft | 548 kts | 65° |
| 2026-04-25 14:59 | 20.43190 | -51.35314 | 39063 ft | 548 kts | 65° |
| 2026-04-25 14:59 | 20.46231 | -51.27927 | 39061 ft | 548 kts | 65° |
| 2026-04-25 15:00 | 20.49288 | -51.20488 | 39066 ft | 548 kts | 66° |
| 2026-04-25 15:00 | 20.52347 | -51.13033 | 39071 ft | 549 kts | 65° |
| 2026-04-25 15:01 | 20.55410 | -51.05561 | 39065 ft | 550 kts | 65° |
| 2026-04-25 15:01 | 20.58471 | -50.98083 | 39069 ft | 550 kts | 65° |
| 2026-04-25 15:02 | 20.61528 | -50.90602 | 39062 ft | 550 kts | 65° |
| 2026-04-25 15:02 | 20.64580 | -50.83122 | 39066 ft | 550 kts | 65° |
| 2026-04-25 15:03 | 20.67628 | -50.75639 | 39073 ft | 550 kts | 65° |
| 2026-04-25 15:03 | 20.70681 | -50.68136 | 39067 ft | 551 kts | 65° |
| 2026-04-25 15:04 | 20.73734 | -50.60622 | 39066 ft | 551 kts | 65° |
| 2026-04-25 15:04 | 20.76781 | -50.53112 | 39071 ft | 551 kts | 65° |
| 2026-04-25 15:05 | 20.79823 | -50.45602 | 39072 ft | 551 kts | 65° |
| 2026-04-25 15:06 | 20.84379 | -50.34331 | 39072 ft | 551 kts | 65° |
| 2026-04-25 15:06 | 20.87420 | -50.26797 | 39070 ft | 552 kts | 65° |
| 2026-04-25 15:07 | 20.90459 | -50.19258 | 39066 ft | 552 kts | 65° |
| 2026-04-25 15:07 | 20.93494 | -50.11716 | 39071 ft | 552 kts | 65° |
| 2026-04-25 15:08 | 20.96523 | -50.04175 | 39068 ft | 552 kts | 65° |
| 2026-04-25 15:08 | 20.99089 | -49.96433 | 39061 ft | 554 kts | 74° |
| 2026-04-25 15:09 | 21.01034 | -49.88442 | 39077 ft | 555 kts | 75° |
| 2026-04-25 15:09 | 21.03795 | -49.76409 | 39064 ft | 555 kts | 76° |
| 2026-04-25 15:10 | 21.05636 | -49.68391 | 39063 ft | 555 kts | 76° |
| 2026-04-25 15:11 | 21.08406 | -49.56373 | 39078 ft | 554 kts | 76° |
| 2026-04-25 15:11 | 21.10253 | -49.48345 | 39080 ft | 555 kts | 75° |
| 2026-04-25 15:12 | 21.13013 | -49.36312 | 39081 ft | 555 kts | 75° |
| 2026-04-25 15:12 | 21.14231 | -49.30989 | 39079 ft | 555 kts | 75° |
| 2026-04-25 15:13 | 21.17598 | -49.16231 | 39081 ft | 555 kts | 76° |
| 2026-04-25 15:14 | 21.19424 | -49.08199 | 39076 ft | 555 kts | 76° |
| 2026-04-25 15:14 | 21.21233 | -49.00220 | 39074 ft | 554 kts | 75° |
| 2026-04-25 15:15 | 21.23048 | -48.92198 | 39081 ft | 554 kts | 75° |
| 2026-04-25 15:15 | 21.24860 | -48.84175 | 39070 ft | 554 kts | 75° |
| 2026-04-25 15:16 | 21.26668 | -48.76148 | 39073 ft | 554 kts | 75° |
| 2026-04-25 15:16 | 21.29370 | -48.64118 | 39083 ft | 553 kts | 75° |
| 2026-04-25 15:17 | 21.32063 | -48.52079 | 39077 ft | 552 kts | 75° |
| 2026-04-25 15:18 | 21.33848 | -48.44079 | 39080 ft | 551 kts | 75° |
| 2026-04-25 15:18 | 21.36520 | -48.32072 | 39079 ft | 552 kts | 75° |
| 2026-04-25 15:19 | 21.37696 | -48.26776 | 39081 ft | 552 kts | 75° |
| 2026-04-25 15:19 | 21.40068 | -48.16060 | 39075 ft | 552 kts | 75° |
| 2026-04-25 15:20 | 21.41837 | -48.08048 | 39078 ft | 552 kts | 75° |
| 2026-04-25 15:20 | 21.43602 | -48.00034 | 39075 ft | 552 kts | 75° |
| 2026-04-25 15:21 | 21.45365 | -47.92009 | 39088 ft | 553 kts | 75° |
| 2026-04-25 15:21 | 21.47127 | -47.83969 | 39086 ft | 553 kts | 75° |
| 2026-04-25 15:22 | 21.48885 | -47.75929 | 39077 ft | 554 kts | 76° |
| 2026-04-25 15:22 | 21.50344 | -47.69243 | 39075 ft | 554 kts | 76° |
| 2026-04-25 15:23 | 21.52378 | -47.59888 | 39085 ft | 552 kts | 75° |
| 2026-04-25 15:23 | 21.53837 | -47.53167 | 39092 ft | 551 kts | 75° |
| 2026-04-25 15:24 | 21.55576 | -47.45144 | 39095 ft | 551 kts | 75° |
| 2026-04-25 15:24 | 21.57018 | -47.38471 | 39076 ft | 552 kts | 75° |
| 2026-04-25 15:25 | 21.59042 | -47.29084 | 39079 ft | 552 kts | 75° |
| 2026-04-25 15:25 | 21.60771 | -47.21041 | 39079 ft | 552 kts | 75° |
| 2026-04-25 15:26 | 21.62484 | -47.13052 | 39083 ft | 552 kts | 75° |
| 2026-04-25 15:26 | 21.64201 | -47.05025 | 39083 ft | 551 kts | 75° |
| 2026-04-25 15:27 | 21.65916 | -46.96994 | 39086 ft | 551 kts | 75° |
| 2026-04-25 15:28 | 21.68477 | -46.84956 | 39083 ft | 551 kts | 75° |
| 2026-04-25 15:28 | 21.70181 | -46.76922 | 39083 ft | 551 kts | 75° |
| 2026-04-25 15:29 | 21.71883 | -46.68881 | 39089 ft | 552 kts | 75° |
| 2026-04-25 15:29 | 21.73584 | -46.60820 | 39086 ft | 553 kts | 75° |
| 2026-04-25 15:30 | 21.75280 | -46.52759 | 39090 ft | 553 kts | 75° |
| 2026-04-25 15:30 | 21.76974 | -46.44690 | 39092 ft | 553 kts | 75° |
| 2026-04-25 15:31 | 21.78665 | -46.36619 | 39088 ft | 553 kts | 75° |
| 2026-04-25 15:31 | 21.80350 | -46.28551 | 39104 ft | 552 kts | 76° |
| 2026-04-25 15:32 | 21.82034 | -46.20472 | 39090 ft | 554 kts | 76° |
| 2026-04-25 15:32 | 21.83717 | -46.12376 | 39091 ft | 555 kts | 76° |
| 2026-04-25 15:33 | 21.86235 | -46.00217 | 39091 ft | 554 kts | 76° |
| 2026-04-25 15:33 | 21.87907 | -45.92116 | 39089 ft | 554 kts | 76° |
| 2026-04-25 15:34 | 21.89574 | -45.84022 | 39103 ft | 554 kts | 76° |
| 2026-04-25 15:34 | 21.90960 | -45.77281 | 39089 ft | 556 kts | 76° |
| 2026-04-25 15:35 | 21.93739 | -45.63707 | 39094 ft | 556 kts | 76° |
| 2026-04-25 15:36 | 21.96225 | -45.51515 | 39095 ft | 555 kts | 76° |
| 2026-04-25 15:36 | 21.97876 | -45.43390 | 39096 ft | 555 kts | 76° |
| 2026-04-25 15:37 | 21.99525 | -45.35255 | 39094 ft | 557 kts | 76° |
| 2026-04-25 15:37 | 22.01175 | -45.27098 | 39090 ft | 557 kts | 76° |
| 2026-04-25 15:38 | 22.02820 | -45.18936 | 39085 ft | 557 kts | 76° |
| 2026-04-25 15:38 | 22.04450 | -45.10832 | 39094 ft | 557 kts | 76° |
| 2026-04-25 15:39 | 22.06095 | -45.02625 | 39090 ft | 556 kts | 76° |
| 2026-04-25 15:39 | 22.07726 | -44.94473 | 39094 ft | 556 kts | 76° |
| 2026-04-25 15:40 | 22.09077 | -44.87702 | 39094 ft | 556 kts | 76° |
| 2026-04-25 15:40 | 22.10962 | -44.78223 | 39094 ft | 556 kts | 76° |
| 2026-04-25 15:41 | 22.12584 | -44.70050 | 39092 ft | 557 kts | 76° |
| 2026-04-25 15:41 | 22.14200 | -44.61880 | 39092 ft | 557 kts | 76° |
| 2026-04-25 15:42 | 22.15811 | -44.53714 | 39099 ft | 558 kts | 76° |
| 2026-04-25 15:42 | 22.17422 | -44.45525 | 39098 ft | 558 kts | 76° |
| 2026-04-25 15:43 | 22.19029 | -44.37336 | 39096 ft | 558 kts | 76° |
| 2026-04-25 15:43 | 22.20633 | -44.29139 | 39101 ft | 558 kts | 76° |
| 2026-04-25 15:44 | 22.22232 | -44.20941 | 39099 ft | 558 kts | 76° |
| 2026-04-25 15:44 | 22.23829 | -44.12734 | 39098 ft | 559 kts | 76° |
| 2026-04-25 15:45 | 22.25423 | -44.04519 | 39095 ft | 559 kts | 76° |
| 2026-04-25 15:45 | 22.26756 | -43.97630 | 39096 ft | 560 kts | 76° |
| 2026-04-25 15:46 | 22.28602 | -43.88066 | 39094 ft | 560 kts | 76° |
| 2026-04-25 15:46 | 22.30185 | -43.79833 | 39100 ft | 560 kts | 76° |
| 2026-04-25 15:47 | 22.31764 | -43.71603 | 39099 ft | 560 kts | 76° |
| 2026-04-25 15:47 | 22.33340 | -43.63364 | 39099 ft | 560 kts | 76° |
| 2026-04-25 15:48 | 22.34912 | -43.55124 | 39099 ft | 560 kts | 76° |
| 2026-04-25 15:48 | 22.36480 | -43.46881 | 39099 ft | 560 kts | 76° |
| 2026-04-25 15:49 | 22.38043 | -43.38636 | 39091 ft | 560 kts | 76° |
| 2026-04-25 15:49 | 22.39592 | -43.30444 | 39099 ft | 560 kts | 76° |
| 2026-04-25 15:50 | 22.41147 | -43.22196 | 39099 ft | 560 kts | 76° |
| 2026-04-25 15:50 | 22.42698 | -43.13946 | 39099 ft | 560 kts | 76° |
| 2026-04-25 15:51 | 22.43984 | -43.07086 | 39102 ft | 560 kts | 76° |
| 2026-04-25 15:51 | 22.45787 | -42.97441 | 39102 ft | 560 kts | 76° |
| 2026-04-25 15:52 | 22.47326 | -42.89183 | 39102 ft | 560 kts | 76° |
| 2026-04-25 15:52 | 22.48861 | -42.80923 | 39102 ft | 560 kts | 76° |
| 2026-04-25 15:53 | 22.50390 | -42.72665 | 39102 ft | 560 kts | 76° |
| 2026-04-25 15:53 | 22.51917 | -42.64398 | 39105 ft | 561 kts | 76° |
| 2026-04-25 15:54 | 22.53440 | -42.56129 | 39103 ft | 560 kts | 76° |
| 2026-04-25 15:54 | 22.54957 | -42.47862 | 39102 ft | 560 kts | 76° |
| 2026-04-25 15:55 | 22.56471 | -42.39594 | 39110 ft | 560 kts | 76° |
| 2026-04-25 15:55 | 22.57980 | -42.31323 | 39102 ft | 560 kts | 76° |
| 2026-04-25 15:56 | 22.59485 | -42.23051 | 39102 ft | 560 kts | 76° |
| 2026-04-25 15:56 | 22.60986 | -42.14777 | 39103 ft | 560 kts | 76° |
| 2026-04-25 15:57 | 22.62473 | -42.06555 | 39102 ft | 560 kts | 76° |
| 2026-04-25 15:57 | 22.63965 | -41.98279 | 39105 ft | 560 kts | 76° |
| 2026-04-25 15:58 | 22.65463 | -41.89943 | 39102 ft | 561 kts | 76° |
| 2026-04-25 15:58 | 22.66947 | -41.81657 | 39102 ft | 561 kts | 76° |
| 2026-04-25 15:59 | 22.68418 | -41.73423 | 39107 ft | 561 kts | 76° |
| 2026-04-25 15:59 | 22.69895 | -41.65129 | 39104 ft | 561 kts | 76° |
| 2026-04-25 16:00 | 22.70879 | -41.59587 | 39110 ft | 561 kts | 76° |
| 2026-04-25 16:00 | 22.72836 | -41.48536 | 39110 ft | 561 kts | 76° |
| 2026-04-25 16:01 | 22.74299 | -41.40243 | 39105 ft | 561 kts | 76° |
| 2026-04-25 16:01 | 22.75759 | -41.31940 | 39107 ft | 561 kts | 76° |
| 2026-04-25 16:02 | 22.77215 | -41.23633 | 39105 ft | 561 kts | 76° |
| 2026-04-25 16:02 | 22.78668 | -41.15319 | 39108 ft | 561 kts | 76° |
| 2026-04-25 16:03 | 22.80116 | -41.07004 | 39108 ft | 561 kts | 76° |
| 2026-04-25 16:03 | 22.81560 | -40.98692 | 39108 ft | 561 kts | 76° |
| 2026-04-25 16:04 | 22.82998 | -40.90380 | 39111 ft | 561 kts | 76° |
| 2026-04-25 16:04 | 22.84435 | -40.82053 | 39105 ft | 562 kts | 76° |
| 2026-04-25 16:05 | 22.85867 | -40.73725 | 39108 ft | 562 kts | 76° |
| 2026-04-25 16:06 | 22.87997 | -40.61287 | 39107 ft | 563 kts | 76° |
| 2026-04-25 16:06 | 22.89422 | -40.52936 | 39107 ft | 563 kts | 76° |
| 2026-04-25 16:07 | 22.90840 | -40.44590 | 39112 ft | 563 kts | 76° |
| 2026-04-25 16:07 | 22.92257 | -40.36230 | 39110 ft | 564 kts | 76° |
| 2026-04-25 16:08 | 22.93671 | -40.27863 | 39110 ft | 564 kts | 76° |
| 2026-04-25 16:08 | 22.95080 | -40.19491 | 39108 ft | 564 kts | 76° |
| 2026-04-25 16:09 | 22.96486 | -40.11112 | 39108 ft | 565 kts | 76° |
| 2026-04-25 16:09 | 22.97717 | -40.02684 | 39116 ft | 568 kts | 84° |
| 2026-04-25 16:09 | 22.97644 | -39.98397 | 39109 ft | 571 kts | 96° |
| 2026-04-25 16:10 | 22.96956 | -39.94158 | 39107 ft | 571 kts | 102° |
| 2026-04-25 16:10 | 22.95090 | -39.85787 | 39110 ft | 571 kts | 105° |
| 2026-04-25 16:11 | 22.93050 | -39.77467 | 39112 ft | 571 kts | 105° |
| 2026-04-25 16:11 | 22.91358 | -39.70540 | 39110 ft | 572 kts | 105° |
| 2026-04-25 16:12 | 22.89027 | -39.60838 | 39110 ft | 572 kts | 105° |
| 2026-04-25 16:12 | 22.87357 | -39.53845 | 39112 ft | 572 kts | 105° |
| 2026-04-25 16:13 | 22.85361 | -39.45493 | 39113 ft | 572 kts | 105° |
| 2026-04-25 16:13 | 22.83034 | -39.35803 | 39113 ft | 571 kts | 105° |
| 2026-04-25 16:14 | 22.81356 | -39.28832 | 39110 ft | 571 kts | 105° |
| 2026-04-25 16:14 | 22.79343 | -39.20496 | 39110 ft | 572 kts | 105° |
| 2026-04-25 16:15 | 22.77327 | -39.12160 | 39116 ft | 572 kts | 105° |
| 2026-04-25 16:15 | 22.75305 | -39.03822 | 39092 ft | 572 kts | 105° |
| 2026-04-25 16:16 | 22.73280 | -38.95493 | 39109 ft | 571 kts | 105° |
| 2026-04-25 16:16 | 22.71267 | -38.87234 | 39110 ft | 571 kts | 105° |
| 2026-04-25 16:17 | 22.69238 | -38.78927 | 39114 ft | 571 kts | 105° |
| 2026-04-25 16:17 | 22.67204 | -38.70621 | 39115 ft | 571 kts | 105° |
| 2026-04-25 16:18 | 22.65165 | -38.62315 | 39111 ft | 571 kts | 105° |
| 2026-04-25 16:18 | 22.63118 | -38.53993 | 39089 ft | 572 kts | 105° |
| 2026-04-25 16:19 | 22.61068 | -38.45682 | 39110 ft | 571 kts | 105° |
| 2026-04-25 16:19 | 22.59018 | -38.37390 | 39111 ft | 571 kts | 105° |
| 2026-04-25 16:20 | 22.55933 | -38.24949 | 39113 ft | 571 kts | 105° |
| 2026-04-25 16:21 | 22.52834 | -38.12496 | 39111 ft | 572 kts | 105° |
| 2026-04-25 16:21 | 22.50762 | -38.04194 | 39107 ft | 572 kts | 105° |
| 2026-04-25 16:22 | 22.48685 | -37.95891 | 39108 ft | 572 kts | 105° |
| 2026-04-25 16:22 | 22.46602 | -37.87586 | 39116 ft | 573 kts | 105° |
| 2026-04-25 16:23 | 22.44513 | -37.79273 | 39107 ft | 573 kts | 105° |
| 2026-04-25 16:23 | 22.42421 | -37.70971 | 39109 ft | 573 kts | 105° |
| 2026-04-25 16:24 | 22.40323 | -37.62660 | 39109 ft | 573 kts | 105° |
| 2026-04-25 16:24 | 22.38219 | -37.54347 | 39104 ft | 573 kts | 105° |
| 2026-04-25 16:25 | 22.36130 | -37.46111 | 39113 ft | 572 kts | 105° |
| 2026-04-25 16:25 | 22.34025 | -37.37835 | 39105 ft | 572 kts | 105° |
| 2026-04-25 16:26 | 22.31911 | -37.29542 | 39108 ft | 573 kts | 106° |
| 2026-04-25 16:26 | 22.29792 | -37.21247 | 39112 ft | 573 kts | 105° |
| 2026-04-25 16:27 | 22.27670 | -37.12956 | 39106 ft | 573 kts | 106° |
| 2026-04-25 16:27 | 22.25541 | -37.04658 | 39101 ft | 573 kts | 106° |
| 2026-04-25 16:28 | 22.23414 | -36.96388 | 39111 ft | 571 kts | 106° |
| 2026-04-25 16:28 | 22.21283 | -36.88124 | 39108 ft | 572 kts | 106° |
| 2026-04-25 16:29 | 22.19147 | -36.79858 | 39105 ft | 572 kts | 106° |
| 2026-04-25 16:29 | 22.17008 | -36.71594 | 39108 ft | 572 kts | 106° |
| 2026-04-25 16:30 | 22.14861 | -36.63324 | 39107 ft | 573 kts | 106° |
| 2026-04-25 16:30 | 22.12709 | -36.55051 | 39103 ft | 572 kts | 106° |
| 2026-04-25 16:31 | 22.10558 | -36.46800 | 39107 ft | 571 kts | 106° |
| 2026-04-25 16:31 | 22.08406 | -36.38560 | 39105 ft | 571 kts | 106° |
| 2026-04-25 16:32 | 22.06249 | -36.30325 | 39105 ft | 571 kts | 106° |
| 2026-04-25 16:32 | 22.04088 | -36.22091 | 39110 ft | 571 kts | 106° |
| 2026-04-25 16:33 | 22.01924 | -36.13864 | 39105 ft | 570 kts | 106° |
| 2026-04-25 16:33 | 21.99757 | -36.05641 | 39095 ft | 570 kts | 106° |
| 2026-04-25 16:34 | 21.97551 | -35.97452 | 39106 ft | 568 kts | 109° |
| 2026-04-25 16:34 | 21.94786 | -35.89488 | 39105 ft | 568 kts | 113° |
| 2026-04-25 16:35 | 21.91834 | -35.81595 | 39102 ft | 568 kts | 113° |
| 2026-04-25 16:35 | 21.88974 | -35.73726 | 39107 ft | 568 kts | 112° |
| 2026-04-25 16:36 | 21.86152 | -35.65769 | 39104 ft | 569 kts | 111° |
| 2026-04-25 16:36 | 21.83345 | -35.57808 | 39099 ft | 568 kts | 112° |
| 2026-04-25 16:37 | 21.80541 | -35.49876 | 39111 ft | 567 kts | 112° |
| 2026-04-25 16:37 | 21.77726 | -35.41943 | 39097 ft | 568 kts | 112° |
| 2026-04-25 16:38 | 21.74904 | -35.34009 | 39097 ft | 568 kts | 112° |
| 2026-04-25 16:38 | 21.72080 | -35.26081 | 39094 ft | 568 kts | 112° |
| 2026-04-25 16:39 | 21.69249 | -35.18148 | 39097 ft | 568 kts | 112° |
| 2026-04-25 16:39 | 21.66418 | -35.10226 | 39096 ft | 567 kts | 112° |
| 2026-04-25 16:40 | 21.63592 | -35.02333 | 39096 ft | 566 kts | 112° |
| 2026-04-25 16:40 | 21.60760 | -34.94438 | 39098 ft | 567 kts | 112° |
| 2026-04-25 16:41 | 21.57920 | -34.86534 | 39091 ft | 567 kts | 112° |
| 2026-04-25 16:41 | 21.53653 | -34.74681 | 39091 ft | 567 kts | 112° |
| 2026-04-25 16:42 | 21.50804 | -34.66784 | 39090 ft | 566 kts | 112° |
| 2026-04-25 16:42 | 21.47958 | -34.58910 | 39091 ft | 566 kts | 112° |
| 2026-04-25 16:43 | 21.45106 | -34.51029 | 39091 ft | 566 kts | 112° |
| 2026-04-25 16:43 | 21.42252 | -34.43160 | 39093 ft | 566 kts | 112° |
| 2026-04-25 16:44 | 21.39407 | -34.35330 | 39091 ft | 567 kts | 112° |
| 2026-04-25 16:44 | 21.36541 | -34.27452 | 39091 ft | 567 kts | 112° |
| 2026-04-25 16:45 | 21.33677 | -34.19591 | 39095 ft | 565 kts | 112° |
| 2026-04-25 16:45 | 21.30810 | -34.11738 | 39088 ft | 565 kts | 112° |
| 2026-04-25 16:46 | 21.27942 | -34.03895 | 39088 ft | 565 kts | 112° |
| 2026-04-25 16:46 | 21.26019 | -33.98644 | 39088 ft | 565 kts | 112° |
| 2026-04-25 16:47 | 21.22189 | -33.88203 | 39088 ft | 565 kts | 112° |
| 2026-04-25 16:47 | 21.19309 | -33.80364 | 39086 ft | 565 kts | 112° |
| 2026-04-25 16:48 | 21.16432 | -33.72547 | 39086 ft | 562 kts | 112° |
| 2026-04-25 16:48 | 21.13562 | -33.64763 | 39082 ft | 562 kts | 112° |
| 2026-04-25 16:49 | 21.10685 | -33.56972 | 39082 ft | 563 kts | 112° |
| 2026-04-25 16:49 | 21.07802 | -33.49179 | 39082 ft | 563 kts | 112° |
| 2026-04-25 16:50 | 21.04919 | -33.41398 | 39085 ft | 563 kts | 112° |
| 2026-04-25 16:50 | 21.02027 | -33.33604 | 39083 ft | 564 kts | 112° |
| 2026-04-25 16:51 | 20.99129 | -33.25808 | 39083 ft | 564 kts | 112° |
| 2026-04-25 16:51 | 20.97207 | -33.20643 | 39080 ft | 564 kts | 112° |
| 2026-04-25 16:52 | 20.93338 | -33.10264 | 39084 ft | 564 kts | 113° |
| 2026-04-25 16:52 | 20.90428 | -33.02472 | 39078 ft | 565 kts | 113° |
| 2026-04-25 16:53 | 20.86047 | -32.90765 | 39078 ft | 565 kts | 113° |
| 2026-04-25 16:54 | 20.83125 | -32.82972 | 39077 ft | 564 kts | 113° |
| 2026-04-25 16:54 | 20.80206 | -32.75200 | 39069 ft | 563 kts | 113° |
| 2026-04-25 16:55 | 20.77291 | -32.67450 | 39068 ft | 563 kts | 113° |
| 2026-04-25 16:55 | 20.74365 | -32.59685 | 39079 ft | 563 kts | 113° |
| 2026-04-25 16:56 | 20.71434 | -32.51918 | 39072 ft | 564 kts | 113° |
| 2026-04-25 16:56 | 20.68500 | -32.44155 | 39069 ft | 564 kts | 113° |
| 2026-04-25 16:57 | 20.65558 | -32.36385 | 39069 ft | 564 kts | 113° |
| 2026-04-25 16:57 | 20.62618 | -32.28629 | 39069 ft | 563 kts | 113° |
| 2026-04-25 16:58 | 20.59681 | -32.20894 | 39066 ft | 563 kts | 113° |
| 2026-04-25 16:58 | 20.56738 | -32.13155 | 39066 ft | 563 kts | 113° |
| 2026-04-25 16:59 | 20.53791 | -32.05419 | 39065 ft | 563 kts | 113° |
| 2026-04-25 16:59 | 20.50840 | -31.97684 | 39061 ft | 564 kts | 113° |
| 2026-04-25 17:00 | 20.47881 | -31.89940 | 39041 ft | 564 kts | 113° |
| 2026-04-25 17:00 | 20.44943 | -31.82263 | 39062 ft | 561 kts | 113° |
| 2026-04-25 17:01 | 20.42005 | -31.74563 | 39060 ft | 561 kts | 112° |
| 2026-04-25 17:01 | 20.41037 | -31.70537 | 39070 ft | 561 kts | 99° |
| 2026-04-25 17:01 | 20.40079 | -31.66514 | 39065 ft | 561 kts | 108° |
| 2026-04-25 17:02 | 20.37748 | -31.60061 | 39115 ft | 560 kts | 115° |
| 2026-04-25 17:02 | 20.35563 | -31.55035 | 39293 ft | 559 kts | 117° |
| 2026-04-25 17:02 | 20.34444 | -31.52565 | 39407 ft | 559 kts | 117° |
| 2026-04-25 17:02 | 20.32723 | -31.48791 | 39555 ft | 559 kts | 117° |
| 2026-04-25 17:03 | 20.31052 | -31.45110 | 39717 ft | 559 kts | 117° |
| 2026-04-25 17:03 | 20.29375 | -31.41377 | 39854 ft | 558 kts | 117° |
| 2026-04-25 17:03 | 20.27717 | -31.37654 | 40128 ft | 554 kts | 117° |
| 2026-04-25 17:03 | 20.26077 | -31.33947 | 40366 ft | 552 kts | 117° |
| 2026-04-25 17:04 | 20.24447 | -31.30254 | 40512 ft | 551 kts | 117° |
| 2026-04-25 17:04 | 20.22817 | -31.26559 | 40639 ft | 551 kts | 117° |
| 2026-04-25 17:04 | 20.21187 | -31.22867 | 40769 ft | 551 kts | 117° |
| 2026-04-25 17:04 | 20.19560 | -31.19184 | 40895 ft | 550 kts | 117° |
| 2026-04-25 17:05 | 20.17932 | -31.15501 | 41018 ft | 550 kts | 117° |
| 2026-04-25 17:05 | 20.13039 | -31.04460 | 41051 ft | 549 kts | 117° |
| 2026-04-25 17:06 | 20.09779 | -30.97117 | 41051 ft | 549 kts | 117° |
| 2026-04-25 17:06 | 20.06519 | -30.89782 | 41046 ft | 547 kts | 117° |
| 2026-04-25 17:07 | 20.03264 | -30.82468 | 41046 ft | 547 kts | 117° |
| 2026-04-25 17:07 | 20.00008 | -30.75164 | 41049 ft | 547 kts | 117° |
| 2026-04-25 17:08 | 19.96747 | -30.67856 | 41055 ft | 547 kts | 117° |
| 2026-04-25 17:08 | 19.93485 | -30.60557 | 41052 ft | 547 kts | 117° |
| 2026-04-25 17:09 | 19.90214 | -30.53248 | 41046 ft | 547 kts | 117° |
| 2026-04-25 17:09 | 19.86945 | -30.45952 | 41043 ft | 546 kts | 117° |
| 2026-04-25 17:10 | 19.83689 | -30.38692 | 41046 ft | 544 kts | 117° |
| 2026-04-25 17:10 | 19.80429 | -30.31437 | 41047 ft | 544 kts | 117° |
| 2026-04-25 17:11 | 19.77171 | -30.24193 | 41049 ft | 544 kts | 117° |
| 2026-04-25 17:11 | 19.73904 | -30.16942 | 41043 ft | 544 kts | 117° |
| 2026-04-25 17:12 | 19.70637 | -30.09696 | 41047 ft | 544 kts | 117° |
| 2026-04-25 17:12 | 19.67370 | -30.02461 | 41035 ft | 544 kts | 117° |
| 2026-04-25 17:13 | 19.64655 | -29.96455 | 41042 ft | 542 kts | 117° |
| 2026-04-25 17:13 | 19.60843 | -29.88035 | 41042 ft | 542 kts | 117° |
| 2026-04-25 17:14 | 19.57577 | -29.80832 | 41046 ft | 542 kts | 118° |
| 2026-04-25 17:14 | 19.54302 | -29.73618 | 41044 ft | 543 kts | 118° |
| 2026-04-25 17:15 | 19.51046 | -29.66453 | 41035 ft | 543 kts | 118° |
| 2026-04-25 17:15 | 19.47766 | -29.59244 | 41038 ft | 543 kts | 118° |
| 2026-04-25 17:16 | 19.44487 | -29.52044 | 41041 ft | 542 kts | 118° |
| 2026-04-25 17:16 | 19.41209 | -29.44852 | 41032 ft | 542 kts | 118° |
| 2026-04-25 17:17 | 19.37931 | -29.37667 | 41031 ft | 542 kts | 118° |
| 2026-04-25 17:17 | 19.34648 | -29.30478 | 41029 ft | 542 kts | 118° |
| 2026-04-25 17:18 | 19.31360 | -29.23287 | 41033 ft | 542 kts | 118° |
| 2026-04-25 17:18 | 19.28059 | -29.16102 | 41031 ft | 543 kts | 118° |
| 2026-04-25 17:19 | 19.24758 | -29.08922 | 41021 ft | 543 kts | 118° |
| 2026-04-25 17:19 | 19.21463 | -29.01755 | 41028 ft | 541 kts | 118° |
| 2026-04-25 17:20 | 19.18175 | -28.94611 | 41029 ft | 540 kts | 118° |
| 2026-04-25 17:20 | 19.14882 | -28.87465 | 41026 ft | 541 kts | 118° |
| 2026-04-25 17:21 | 19.11584 | -28.80318 | 41026 ft | 541 kts | 118° |
| 2026-04-25 17:21 | 19.08283 | -28.73173 | 41023 ft | 541 kts | 118° |
| 2026-04-25 17:22 | 19.05537 | -28.67237 | 41023 ft | 541 kts | 118° |
| 2026-04-25 17:22 | 19.01692 | -28.58933 | 41023 ft | 541 kts | 118° |
| 2026-04-25 17:23 | 19.01134 | -28.57730 | 41023 ft | 541 kts | 118° |
| 2026-04-25 17:24 | 18.88701 | -28.30967 | 41018 ft | 541 kts | 118° |
| 2026-04-25 17:25 | 18.85362 | -28.23800 | 41020 ft | 541 kts | 118° |
| 2026-04-25 17:25 | 18.81498 | -28.15518 | 41026 ft | 541 kts | 118° |
| 2026-04-25 17:26 | 18.78742 | -28.09617 | 41025 ft | 539 kts | 118° |
| 2026-04-25 17:26 | 18.75427 | -28.02527 | 41021 ft | 538 kts | 118° |
| 2026-04-25 17:27 | 18.72112 | -27.95448 | 41005 ft | 538 kts | 118° |
| 2026-04-25 17:27 | 18.69353 | -27.89561 | 41025 ft | 538 kts | 118° |
| 2026-04-25 17:28 | 18.65473 | -27.81294 | 41005 ft | 538 kts | 118° |
| 2026-04-25 17:28 | 18.62148 | -27.74216 | 41023 ft | 538 kts | 118° |
| 2026-04-25 17:29 | 18.58824 | -27.67149 | 41013 ft | 538 kts | 118° |
| 2026-04-25 17:29 | 18.55502 | -27.60095 | 41016 ft | 537 kts | 118° |
| 2026-04-25 17:30 | 18.52180 | -27.53051 | 41013 ft | 537 kts | 118° |
| 2026-04-25 17:30 | 18.48858 | -27.46014 | 41014 ft | 537 kts | 118° |
| 2026-04-25 17:31 | 18.45550 | -27.39015 | 41012 ft | 538 kts | 118° |
| 2026-04-25 17:31 | 18.42192 | -27.31918 | 40995 ft | 538 kts | 118° |
| 2026-04-25 17:32 | 18.38876 | -27.24917 | 41006 ft | 538 kts | 118° |
| 2026-04-25 17:32 | 18.35534 | -27.17872 | 40998 ft | 537 kts | 118° |
| 2026-04-25 17:33 | 18.32197 | -27.10842 | 41006 ft | 537 kts | 119° |
| 2026-04-25 17:33 | 18.28857 | -27.03816 | 41005 ft | 537 kts | 119° |
| 2026-04-25 17:34 | 18.25518 | -26.96801 | 41001 ft | 537 kts | 119° |
| 2026-04-25 17:34 | 18.22174 | -26.89782 | 41003 ft | 537 kts | 119° |
| 2026-04-25 17:35 | 18.18828 | -26.82767 | 41004 ft | 537 kts | 119° |
| 2026-04-25 17:35 | 18.15480 | -26.75758 | 41000 ft | 537 kts | 119° |
| 2026-04-25 17:36 | 18.12127 | -26.68746 | 40999 ft | 536 kts | 119° |
| 2026-04-25 17:36 | 18.08781 | -26.61754 | 41000 ft | 535 kts | 119° |
| 2026-04-25 17:37 | 18.05439 | -26.54780 | 41002 ft | 535 kts | 119° |
| 2026-04-25 17:37 | 18.02091 | -26.47802 | 40993 ft | 535 kts | 119° |
| 2026-04-25 17:38 | 17.99304 | -26.41999 | 40998 ft | 535 kts | 119° |
| 2026-04-25 17:38 | 17.95384 | -26.33845 | 40994 ft | 535 kts | 119° |
| 2026-04-25 17:39 | 17.92027 | -26.26871 | 40995 ft | 535 kts | 119° |
| 2026-04-25 17:39 | 17.88669 | -26.19902 | 40984 ft | 535 kts | 119° |
| 2026-04-25 17:40 | 17.85312 | -26.12943 | 40992 ft | 534 kts | 119° |
| 2026-04-25 17:40 | 17.81957 | -26.05997 | 40995 ft | 533 kts | 119° |
| 2026-04-25 17:41 | 17.78584 | -25.99068 | 40993 ft | 533 kts | 120° |
| 2026-04-25 17:41 | 17.75037 | -25.92250 | 40989 ft | 533 kts | 122° |
| 2026-04-25 17:42 | 17.71439 | -25.85450 | 40992 ft | 533 kts | 121° |
| 2026-04-25 17:42 | 17.67863 | -25.78639 | 40986 ft | 533 kts | 121° |
| 2026-04-25 17:43 | 17.64302 | -25.71821 | 40980 ft | 533 kts | 121° |
| 2026-04-25 17:43 | 17.60753 | -25.65020 | 40987 ft | 532 kts | 121° |
| 2026-04-25 17:44 | 17.57195 | -25.58209 | 40985 ft | 532 kts | 121° |
| 2026-04-25 17:44 | 17.53636 | -25.51409 | 40987 ft | 532 kts | 121° |
| 2026-04-25 17:45 | 17.51278 | -25.46905 | 40986 ft | 532 kts | 121° |
| 2026-04-25 17:45 | 17.46513 | -25.37817 | 40986 ft | 532 kts | 121° |
| 2026-04-25 17:46 | 17.42947 | -25.31023 | 40985 ft | 532 kts | 121° |
| 2026-04-25 17:46 | 17.39377 | -25.24230 | 40978 ft | 532 kts | 121° |
| 2026-04-25 17:47 | 17.35820 | -25.17467 | 40982 ft | 530 kts | 121° |
| 2026-04-25 17:47 | 17.32259 | -25.10705 | 40982 ft | 530 kts | 121° |
| 2026-04-25 17:48 | 17.26944 | -25.00623 | 40981 ft | 530 kts | 121° |
| 2026-04-25 17:49 | 17.23379 | -24.93870 | 40982 ft | 530 kts | 121° |
| 2026-04-25 17:49 | 17.19819 | -24.87133 | 40977 ft | 530 kts | 121° |
| 2026-04-25 17:50 | 17.16250 | -24.80386 | 40976 ft | 530 kts | 121° |
| 2026-04-25 17:50 | 17.12683 | -24.73648 | 40976 ft | 528 kts | 121° |
| 2026-04-25 17:51 | 17.09128 | -24.66940 | 40968 ft | 527 kts | 122° |
| 2026-04-25 17:51 | 17.05574 | -24.60242 | 40971 ft | 527 kts | 122° |
| 2026-04-25 17:52 | 17.02021 | -24.53553 | 40971 ft | 527 kts | 122° |
| 2026-04-25 17:52 | 16.98464 | -24.46862 | 40952 ft | 527 kts | 122° |
| 2026-04-25 17:53 | 16.94904 | -24.40173 | 40953 ft | 527 kts | 122° |
| 2026-04-25 17:53 | 16.91339 | -24.33480 | 40956 ft | 527 kts | 122° |
| 2026-04-25 17:54 | 16.87777 | -24.26799 | 40953 ft | 526 kts | 122° |
| 2026-04-25 17:54 | 16.84222 | -24.20136 | 40955 ft | 524 kts | 122° |
| 2026-04-25 17:55 | 16.80675 | -24.13498 | 40954 ft | 524 kts | 122° |
| 2026-04-25 17:55 | 16.77123 | -24.06856 | 40963 ft | 524 kts | 122° |
| 2026-04-25 17:56 | 16.73568 | -24.00216 | 40966 ft | 524 kts | 122° |
| 2026-04-25 17:56 | 16.70010 | -23.93574 | 40963 ft | 524 kts | 122° |
| 2026-04-25 17:57 | 16.66450 | -23.86938 | 40955 ft | 524 kts | 122° |
| 2026-04-25 17:57 | 16.62885 | -23.80296 | 40955 ft | 525 kts | 122° |
| 2026-04-25 17:58 | 16.59323 | -23.73668 | 40954 ft | 524 kts | 122° |
| 2026-04-25 17:58 | 16.55753 | -23.67030 | 40952 ft | 524 kts | 122° |
| 2026-04-25 17:59 | 16.52190 | -23.60412 | 40949 ft | 524 kts | 122° |
| 2026-04-25 17:59 | 16.48618 | -23.53785 | 40949 ft | 524 kts | 122° |
| 2026-04-25 18:00 | 16.45046 | -23.47163 | 40945 ft | 524 kts | 122° |
| 2026-04-25 18:00 | 16.41473 | -23.40545 | 40947 ft | 524 kts | 122° |
| 2026-04-25 18:01 | 16.37896 | -23.33926 | 40942 ft | 524 kts | 122° |
| 2026-04-25 18:01 | 16.34317 | -23.27310 | 40941 ft | 523 kts | 122° |
| 2026-04-25 18:02 | 16.30755 | -23.20730 | 40939 ft | 522 kts | 122° |
| 2026-04-25 18:02 | 16.27211 | -23.14192 | 40942 ft | 522 kts | 122° |
| 2026-04-25 18:03 | 16.23642 | -23.07612 | 40939 ft | 522 kts | 122° |
| 2026-04-25 18:03 | 16.20070 | -23.01035 | 40942 ft | 522 kts | 122° |
| 2026-04-25 18:04 | 16.16496 | -22.94458 | 40936 ft | 522 kts | 122° |
| 2026-04-25 18:04 | 16.12919 | -22.87884 | 40936 ft | 522 kts | 122° |
| 2026-04-25 18:05 | 16.09391 | -22.81280 | 40932 ft | 522 kts | 121° |
| 2026-04-25 18:05 | 16.05903 | -22.74673 | 40938 ft | 521 kts | 121° |
| 2026-04-25 18:06 | 16.02404 | -22.68065 | 40937 ft | 521 kts | 121° |
| 2026-04-25 18:06 | 15.98899 | -22.61474 | 40938 ft | 521 kts | 121° |
| 2026-04-25 18:07 | 15.95394 | -22.54894 | 40938 ft | 521 kts | 121° |
| 2026-04-25 18:07 | 15.91881 | -22.48306 | 40937 ft | 521 kts | 121° |
| 2026-04-25 18:08 | 15.88370 | -22.41726 | 40936 ft | 521 kts | 122° |
| 2026-04-25 18:08 | 15.84854 | -22.35144 | 40936 ft | 521 kts | 122° |
| 2026-04-25 18:09 | 15.81336 | -22.28564 | 40925 ft | 520 kts | 121° |
| 2026-04-25 18:09 | 15.78417 | -22.23109 | 40928 ft | 520 kts | 121° |
| 2026-04-25 18:10 | 15.74907 | -22.16552 | 40927 ft | 519 kts | 121° |
| 2026-04-25 18:10 | 15.71394 | -22.09999 | 40928 ft | 519 kts | 121° |
| 2026-04-25 18:11 | 15.67881 | -22.03450 | 40931 ft | 519 kts | 121° |
| 2026-04-25 18:11 | 15.64367 | -21.96906 | 40928 ft | 519 kts | 121° |
| 2026-04-25 18:12 | 15.60850 | -21.90361 | 40925 ft | 519 kts | 122° |
| 2026-04-25 18:12 | 15.57331 | -21.83820 | 40924 ft | 519 kts | 122° |
| 2026-04-25 18:13 | 15.53809 | -21.77279 | 40934 ft | 518 kts | 121° |
| 2026-04-25 18:13 | 15.50297 | -21.70760 | 40918 ft | 518 kts | 121° |
| 2026-04-25 18:14 | 15.45045 | -21.61024 | 40931 ft | 518 kts | 121° |
| 2026-04-25 18:14 | 15.41530 | -21.54517 | 40931 ft | 518 kts | 121° |
| 2026-04-25 18:15 | 15.38011 | -21.48006 | 40924 ft | 518 kts | 121° |
| 2026-04-25 18:15 | 15.34490 | -21.41497 | 40912 ft | 518 kts | 121° |
| 2026-04-25 18:16 | 15.30968 | -21.34992 | 40910 ft | 518 kts | 122° |
| 2026-04-25 18:17 | 15.25685 | -21.25246 | 40921 ft | 516 kts | 121° |
| 2026-04-25 18:17 | 15.22172 | -21.18773 | 40921 ft | 515 kts | 121° |
| 2026-04-25 18:18 | 15.18660 | -21.12306 | 40914 ft | 515 kts | 121° |
| 2026-04-25 18:18 | 15.15147 | -21.05843 | 40912 ft | 515 kts | 121° |
| 2026-04-25 18:19 | 15.11630 | -20.99379 | 40910 ft | 515 kts | 121° |
| 2026-04-25 18:19 | 15.08117 | -20.92927 | 40910 ft | 515 kts | 121° |
| 2026-04-25 18:20 | 15.04599 | -20.86471 | 40909 ft | 515 kts | 121° |
| 2026-04-25 18:20 | 15.01079 | -20.80017 | 40909 ft | 515 kts | 121° |
| 2026-04-25 18:21 | 14.97563 | -20.73578 | 40905 ft | 513 kts | 121° |
| 2026-04-25 18:21 | 14.94052 | -20.67151 | 40909 ft | 512 kts | 121° |
| 2026-04-25 18:22 | 14.90545 | -20.60737 | 40904 ft | 512 kts | 121° |
| 2026-04-25 18:22 | 14.87035 | -20.54323 | 40904 ft | 512 kts | 121° |
| 2026-04-25 18:23 | 14.83527 | -20.47919 | 40905 ft | 512 kts | 121° |
| 2026-04-25 18:23 | 14.80038 | -20.41554 | 40902 ft | 512 kts | 121° |
| 2026-04-25 18:24 | 14.76503 | -20.35110 | 40902 ft | 512 kts | 121° |
| 2026-04-25 18:24 | 14.73015 | -20.28758 | 40903 ft | 512 kts | 121° |
| 2026-04-25 18:25 | 14.69533 | -20.22348 | 40893 ft | 512 kts | 117° |
| 2026-04-25 18:25 | 14.67030 | -20.15425 | 40900 ft | 512 kts | 110° |
| 2026-04-25 18:26 | 14.64792 | -20.08498 | 40900 ft | 512 kts | 109° |
| 2026-04-25 18:26 | 14.62548 | -20.01513 | 40897 ft | 512 kts | 109° |
| 2026-04-25 18:27 | 14.60306 | -19.94529 | 40897 ft | 512 kts | 109° |
| 2026-04-25 18:27 | 14.58063 | -19.87547 | 40898 ft | 512 kts | 109° |
| 2026-04-25 18:28 | 14.55818 | -19.80566 | 40897 ft | 512 kts | 109° |
| 2026-04-25 18:28 | 14.53572 | -19.73589 | 40895 ft | 512 kts | 109° |
| 2026-04-25 18:29 | 14.50202 | -19.63136 | 40890 ft | 512 kts | 109° |
| 2026-04-25 18:30 | 14.45701 | -19.49200 | 40892 ft | 512 kts | 109° |
| 2026-04-25 18:30 | 14.43449 | -19.42241 | 40892 ft | 510 kts | 109° |
| 2026-04-25 18:31 | 14.42323 | -19.38763 | 40755 ft | 510 kts | 109° |
| 2026-04-25 18:31 | 14.41200 | -19.35297 | 40519 ft | 510 kts | 109° |
| 2026-04-25 18:31 | 14.40075 | -19.31828 | 40267 ft | 511 kts | 109° |
| 2026-04-25 18:31 | 14.38946 | -19.28348 | 40034 ft | 512 kts | 109° |
| 2026-04-25 18:32 | 14.37820 | -19.24877 | 39618 ft | 509 kts | 109° |
| 2026-04-25 18:32 | 14.36696 | -19.21415 | 38963 ft | 510 kts | 109° |
| 2026-04-25 18:32 | 14.35566 | -19.17939 | 38178 ft | 512 kts | 109° |
| 2026-04-25 18:32 | 14.34429 | -19.14441 | 37348 ft | 515 kts | 109° |
| 2026-04-25 18:33 | 14.33289 | -19.10937 | 36640 ft | 516 kts | 108° |
| 2026-04-25 18:33 | 14.32142 | -19.07412 | 36369 ft | 522 kts | 108° |
| 2026-04-25 18:33 | 14.30983 | -19.03852 | 36126 ft | 526 kts | 108° |
| 2026-04-25 18:33 | 14.29818 | -19.00276 | 35885 ft | 527 kts | 108° |
| 2026-04-25 18:34 | 14.28650 | -18.96693 | 35628 ft | 527 kts | 108° |
| 2026-04-25 18:34 | 14.27480 | -18.93104 | 35388 ft | 528 kts | 108° |
| 2026-04-25 18:34 | 14.26308 | -18.89515 | 35176 ft | 529 kts | 108° |
| 2026-04-25 18:34 | 14.25138 | -18.85930 | 34936 ft | 529 kts | 108° |
| 2026-04-25 18:35 | 14.23961 | -18.82327 | 34699 ft | 530 kts | 108° |
| 2026-04-25 18:35 | 14.22784 | -18.78726 | 34474 ft | 531 kts | 108° |
| 2026-04-25 18:35 | 14.21605 | -18.75121 | 34246 ft | 531 kts | 108° |
| 2026-04-25 18:35 | 14.20438 | -18.71557 | 34025 ft | 532 kts | 108° |
| 2026-04-25 18:36 | 14.19255 | -18.67942 | 33786 ft | 533 kts | 108° |
| 2026-04-25 18:36 | 14.18052 | -18.64271 | 33528 ft | 533 kts | 108° |
| 2026-04-25 18:36 | 14.16883 | -18.60705 | 33274 ft | 533 kts | 108° |
| 2026-04-25 18:36 | 14.15700 | -18.57098 | 32749 ft | 529 kts | 108° |
| 2026-04-25 18:37 | 14.14519 | -18.53501 | 31960 ft | 529 kts | 108° |
| 2026-04-25 18:37 | 14.13517 | -18.50449 | 31238 ft | 530 kts | 107° |
| 2026-04-25 18:37 | 14.12334 | -18.46847 | 30395 ft | 531 kts | 107° |
| 2026-04-25 18:37 | 14.11146 | -18.43233 | 29486 ft | 533 kts | 107° |
| 2026-04-25 18:38 | 14.09961 | -18.39626 | 28666 ft | 531 kts | 107° |
| 2026-04-25 18:38 | 14.08781 | -18.36041 | 28013 ft | 525 kts | 108° |
| 2026-04-25 18:38 | 14.07614 | -18.32499 | 27364 ft | 519 kts | 108° |
| 2026-04-25 18:38 | 14.06461 | -18.29000 | 26744 ft | 514 kts | 108° |
| 2026-04-25 18:39 | 14.05319 | -18.25534 | 26149 ft | 508 kts | 108° |
| 2026-04-25 18:39 | 14.04190 | -18.22111 | 25569 ft | 502 kts | 108° |
| 2026-04-25 18:39 | 14.03070 | -18.18715 | 24947 ft | 498 kts | 108° |
| 2026-04-25 18:39 | 14.01963 | -18.15362 | 24360 ft | 493 kts | 108° |
| 2026-04-25 18:40 | 14.00865 | -18.12038 | 23806 ft | 487 kts | 108° |
| 2026-04-25 18:40 | 13.99779 | -18.08751 | 23105 ft | 484 kts | 108° |
| 2026-04-25 18:40 | 13.98731 | -18.05470 | 22390 ft | 480 kts | 105° |
| 2026-04-25 18:40 | 13.98213 | -18.02104 | 21714 ft | 474 kts | 90° |
| 2026-04-25 18:41 | 13.98325 | -17.98734 | 21084 ft | 468 kts | 84° |
| 2026-04-25 18:41 | 13.98873 | -17.95514 | 21019 ft | 448 kts | 74° |
| 2026-04-25 18:41 | 13.99856 | -17.92512 | 20518 ft | 440 kts | 67° |
| 2026-04-25 18:41 | 14.01041 | -17.89589 | 19484 ft | 447 kts | 65° |
| 2026-04-25 18:42 | 14.02314 | -17.86645 | 18616 ft | 452 kts | 64° |
| 2026-04-25 18:42 | 14.02751 | -17.85648 | 18368 ft | 452 kts | 64° |
| 2026-04-25 18:42 | 14.04908 | -17.80772 | 17108 ft | 448 kts | 64° |
| 2026-04-25 18:42 | 14.06200 | -17.77870 | 16436 ft | 443 kts | 65° |
| 2026-04-25 18:43 | 14.07482 | -17.74994 | 15602 ft | 442 kts | 65° |
| 2026-04-25 18:43 | 14.08766 | -17.72115 | 14828 ft | 441 kts | 65° |
| 2026-04-25 18:43 | 14.10040 | -17.69260 | 14120 ft | 437 kts | 65° |
| 2026-04-25 18:43 | 14.11306 | -17.66425 | 13432 ft | 433 kts | 66° |
| 2026-04-25 18:44 | 14.12543 | -17.63653 | 12662 ft | 418 kts | 66° |
| 2026-04-25 18:44 | 14.13727 | -17.60998 | 11906 ft | 397 kts | 66° |
| 2026-04-25 18:44 | 14.14851 | -17.58477 | 11337 ft | 381 kts | 66° |
| 2026-04-25 18:44 | 14.15934 | -17.56047 | 11159 ft | 364 kts | 66° |
| 2026-04-25 18:45 | 14.16967 | -17.53730 | 11040 ft | 348 kts | 66° |
| 2026-04-25 18:45 | 14.17956 | -17.51509 | 10919 ft | 333 kts | 66° |
| 2026-04-25 18:45 | 14.18900 | -17.49389 | 10788 ft | 319 kts | 66° |
| 2026-04-25 18:45 | 14.19807 | -17.47353 | 10664 ft | 306 kts | 66° |
| 2026-04-25 18:46 | 14.20677 | -17.45398 | 10529 ft | 294 kts | 66° |
| 2026-04-25 18:46 | 14.21501 | -17.43544 | 10409 ft | 285 kts | 66° |
| 2026-04-25 18:46 | 14.22325 | -17.41691 | 10141 ft | 284 kts | 66° |
| 2026-04-25 18:46 | 14.23144 | -17.39846 | 9833 ft | 285 kts | 66° |
| 2026-04-25 18:47 | 14.23988 | -17.37946 | 9664 ft | 296 kts | 66° |
| 2026-04-25 18:47 | 14.24846 | -17.36012 | 9421 ft | 295 kts | 66° |
| 2026-04-25 18:47 | 14.25701 | -17.34087 | 8916 ft | 296 kts | 65° |
| 2026-04-25 18:47 | 14.26555 | -17.32164 | 8505 ft | 294 kts | 65° |
| 2026-04-25 18:48 | 14.27403 | -17.30256 | 8155 ft | 292 kts | 65° |
| 2026-04-25 18:48 | 14.28246 | -17.28359 | 7844 ft | 291 kts | 64° |
| 2026-04-25 18:48 | 14.29086 | -17.26465 | 7520 ft | 291 kts | 64° |
| 2026-04-25 18:48 | 14.29925 | -17.24575 | 7194 ft | 290 kts | 64° |
| 2026-04-25 18:49 | 14.30762 | -17.22689 | 6871 ft | 288 kts | 64° |
| 2026-04-25 18:49 | 14.31589 | -17.20823 | 6551 ft | 286 kts | 63° |
| 2026-04-25 18:49 | 14.32415 | -17.18962 | 6224 ft | 284 kts | 63° |
| 2026-04-25 18:49 | 14.33231 | -17.17121 | 5892 ft | 282 kts | 63° |
| 2026-04-25 18:50 | 14.34042 | -17.15291 | 5576 ft | 278 kts | 63° |
| 2026-04-25 18:50 | 14.34844 | -17.13483 | 5258 ft | 277 kts | 62° |
| 2026-04-25 18:50 | 14.35644 | -17.11678 | 4939 ft | 275 kts | 62° |
| 2026-04-25 18:50 | 14.36436 | -17.09893 | 4638 ft | 272 kts | 62° |
| 2026-04-25 18:51 | 14.37425 | -17.08266 | 4370 ft | 261 kts | 41° |
| 2026-04-25 18:51 | 14.37888 | -17.07870 | 4332 ft | 253 kts | 30° |
| 2026-04-25 18:51 | 14.40518 | -17.07245 | 4163 ft | 225 kts | 358° |
| 2026-04-25 18:51 | 14.42038 | -17.07303 | 4076 ft | 212 kts | 357° |
| 2026-04-25 18:52 | 14.43466 | -17.07337 | 3999 ft | 198 kts | 359° |
| 2026-04-25 18:52 | 14.44797 | -17.07335 | 3917 ft | 184 kts | 360° |
| 2026-04-25 18:52 | 14.46032 | -17.07329 | 3813 ft | 171 kts | 0° |
| 2026-04-25 18:52 | 14.47212 | -17.07321 | 3664 ft | 169 kts | 360° |
| 2026-04-25 18:53 | 14.48391 | -17.07316 | 3444 ft | 169 kts | 360° |
| 2026-04-25 18:53 | 14.49566 | -17.07314 | 3238 ft | 168 kts | 1° |
| 2026-04-25 18:53 | 14.50730 | -17.07310 | 3004 ft | 166 kts | 0° |
| 2026-04-25 18:53 | 14.51877 | -17.07307 | 2786 ft | 165 kts | 0° |
| 2026-04-25 18:54 | 14.54101 | -17.07301 | 2378 ft | 151 kts | 0° |
| 2026-04-25 18:54 | 14.55145 | -17.07299 | 2187 ft | 147 kts | 1° |
| 2026-04-25 18:54 | 14.56167 | -17.07296 | 2000 ft | 147 kts | 2° |
| 2026-04-25 18:55 | 14.57192 | -17.07293 | 1809 ft | 146 kts | 3° |
| 2026-04-25 18:55 | 14.58211 | -17.07289 | 1641 ft | 146 kts | 1° |
| 2026-04-25 18:55 | 14.59201 | -17.07287 | 1448 ft | 140 kts | 1° |
| 2026-04-25 18:55 | 14.60149 | -17.07285 | 1269 ft | 132 kts | 2° |
| 2026-04-25 18:56 | 14.61041 | -17.07282 | 1113 ft | 127 kts | 1° |
| 2026-04-25 18:56 | 14.61914 | -17.07278 | 953 ft | 121 kts | 356° |
| 2026-04-25 18:56 | 14.62762 | -17.07260 | 740 ft | 128 kts | 355° |
| 2026-04-25 18:56 | 14.63653 | -17.07250 | 616 ft | 128 kts | 356° |
| 2026-04-25 18:57 | 14.64542 | -17.07266 | 550 ft | 136 kts | 359° |
| 2026-04-25 18:57 | 14.65479 | -17.07273 | 369 ft | 131 kts | 357° |
| 2026-04-25 18:57 | 14.66369 | -17.07280 | 311 ft | 119 kts | 0° |
| 2026-04-25 18:57 | 14.66618 | -17.07281 | 311 ft | 90 kts | 360° |
| 2026-04-25 18:58 | 14.67008 | -17.07281 | 312 ft | 11 kts | 0° |
| 2026-04-25 18:58 | 14.67074 | -17.07161 | 310 ft | 11 kts | 87° |
| 2026-04-25 18:58 | 14.67075 | -17.07142 | 310 ft | 0 kts | 88° |
| 2026-04-25 18:59 | 14.67083 | -17.07107 | 311 ft | 9 kts | 65° |
| 2026-04-25 18:59 | 14.67187 | -17.07084 | 309 ft | 7 kts | 349° |
| 2026-04-25 19:00 | 14.67201 | -17.07086 | 308 ft | 0 kts | 351° |
| 2026-04-25 19:00 | 14.67202 | -17.07086 | 308 ft | 1 kts | 351° |
| 2026-04-25 19:01 | 14.67262 | -17.07091 | 311 ft | 7 kts | 358° |
| 2026-04-25 19:01 | 14.67315 | -17.07092 | 308 ft | 8 kts | 359° |
| 2026-04-25 19:01 | 14.67375 | -17.07093 | 309 ft | 9 kts | 359° |
| 2026-04-25 19:01 | 14.67441 | -17.07095 | 311 ft | 7 kts | 358° |
| 2026-04-25 19:02 | 14.67532 | -17.07056 | 311 ft | 8 kts | 78° |
| 2026-04-25 19:02 | 14.67521 | -17.06994 | 312 ft | 9 kts | 129° |
| 2026-04-25 19:02 | 14.67457 | -17.06982 | 311 ft | 11 kts | 177° |
| 2026-04-25 19:03 | 14.67336 | -17.06920 | 311 ft | 12 kts | 147° |
| 2026-04-25 19:03 | 14.67267 | -17.06875 | 311 ft | 3 kts | 148° |
| 2026-04-25 19:03 | 14.67245 | -17.06860 | 312 ft | 0 kts | 148° |
| 2026-04-25 19:04 | 14.67232 | -17.06852 | 311 ft | 0 kts | 147° |